Data for 03/07/2008

Time Sea-Level Adjusted Pressure Absolute Pressure Temperature Relative Humidity Dew Point Precipitation   
(mb) (inHg) (mb) (inHg) (C) (F) (%) (C) (F) (mm) (in)
00:01 1025 30.27 854 25.22 -5.7 21.8 72 -9.9 14.2 0
00:02 1025 30.27 854 25.22 -5.8 21.6 73 -9.9 14.1 0
00:03 1025 30.27 854 25.22 -5.7 21.7 74 -9.6 14.6 0
00:04 1025 30.27 854 25.22 -5.3 22.4 72 -9.7 14.6 0
00:05 1025 30.27 854 25.22 -5.1 22.9 69 -9.8 14.3 0
00:06 1025 30.27 854 25.22 -5.2 22.7 68 -10.2 13.6 0
00:07 1025 30.27 854 25.22 -5.5 22.1 69 -10.2 13.6 0
00:08 1025 30.27 854 25.22 -5.8 21.6 71 -10.1 13.7 0
00:09 1025 30.27 854 25.22 -5.8 21.6 74 -9.8 14.4 0
00:10 1025 30.27 854 25.22 -5.4 22.3 71 -9.8 14.4 0
00:11 1025 30.27 854 25.22 -4.9 23.2 68 -9.8 14.3 0
00:12 1025 30.27 854 25.22 -4.7 23.5 68 -9.8 14.4 0
00:13 1025 30.27 854 25.22 -4.8 23.4 68 -9.9 14.3 0
00:14 1025 30.27 854 25.22 -4.9 23.2 68 -9.8 14.3 0
00:15 1025 30.27 854 25.22 -5 23.1 69 -9.8 14.3 0
00:16 1025 30.27 854 25.22 -4.9 23.2 69 -9.7 14.5 0
00:17 1025 30.27 854 25.22 -4.8 23.4 69 -9.7 14.6 0
00:18 1025 30.27 854 25.22 -4.6 23.7 67 -9.9 14.2 0
00:19 1025 30.27 854 25.22 -4.7 23.5 66 -10 13.9 0
00:20 1025 30.27 854 25.22 -4.9 23.1 68 -9.9 14.2 0
00:21 1025 30.27 854 25.22 -4.9 23.1 67 -10.2 13.7 0
00:22 1025 30.27 854 25.22 -5.2 22.7 71 -9.6 14.7 0
00:23 1025 30.27 854 25.22 -5.2 22.7 71 -9.7 14.6 0
00:24 1025 30.27 854 25.22 -5.1 22.8 72 -9.4 15.2 0
00:25 1025 30.27 854 25.22 -4.9 23.1 69 -9.8 14.4 0
00:26 1025 30.27 854 25.22 -5 22.9 69 -9.9 14.2 0
00:27 1025 30.27 854 25.22 -5.3 22.5 71 -9.8 14.4 0
00:28 1025 30.27 854 25.22 -5.4 22.3 70 -10 13.9 0
00:29 1025 30.27 854 25.22 -5.6 21.9 73 -9.7 14.5 0
00:30 1025 30.27 854 25.22 -5.6 21.8 73 -9.7 14.5 0
00:31 1025 30.27 854 25.22 -5.5 22.1 71 -9.9 14.1 0
00:32 1025 30.27 854 25.22 -5.4 22.2 72 -9.7 14.6 0
00:33 1025 30.27 854 25.22 -5.3 22.5 68 -10.3 13.5 0
00:34 1025 30.27 854 25.22 -5.4 22.3 69 -10.3 13.4 0
00:35 1025 30.27 854 25.22 -5.5 22.1 68 -10.5 13.1 0
00:36 1025 30.27 854 25.22 -5.8 21.6 68 -10.7 12.8 0
00:37 1025 30.27 854 25.22 -5.9 21.4 71 -10.3 13.5 0
00:38 1025 30.27 854 25.22 -5.9 21.5 71 -10.3 13.5 0
00:39 1025 30.27 854 25.22 -5.8 21.5 70 -10.5 13.2 0
00:40 1025 30.27 854 25.22 -5.9 21.4 72 -10.2 13.6 0
00:41 1025 30.27 854 25.22 -5.8 21.5 70 -10.4 13.3 0
00:42 1025 30.27 854 25.22 -5.9 21.5 72 -10.1 13.8 0
00:43 1025 30.27 854 25.22 -5.7 21.7 72 -9.9 14.2 0
00:44 1025 30.27 854 25.22 -5.4 22.2 71 -10 14.1 0
00:45 1025 30.27 854 25.22 -5.3 22.4 71 -9.9 14.2 0
00:46 1025 30.27 854 25.22 -5.2 22.7 70 -9.9 14.2 0
00:47 1025 30.27 854 25.22 -5.1 22.8 68 -10 14 0
00:48 1025 30.27 854 25.22 -5.2 22.7 68 -10.2 13.6 0
00:49 1025 30.27 854 25.22 -5.4 22.3 67 -10.5 13.1 0
00:50 1025 30.27 854 25.22 -5.8 21.6 70 -10.5 13.1 0
00:51 1025 30.27 854 25.22 -6 21.2 73 -10.2 13.7 0
00:52 1025 30.27 854 25.22 -5.9 21.4 73 -10 14.1 0
00:53 1025 30.27 854 25.22 -5.7 21.8 71 -10.2 13.7 0
00:54 1025 30.27 854 25.22 -5.5 22.1 71 -10 14 0
00:55 1025 30.27 854 25.22 -5.4 22.2 69 -10.2 13.6 0
00:56 1025 30.27 854 25.22 -5.3 22.5 71 -9.8 14.3 0
00:57 1025 30.27 854 25.22 -5 23 69 -9.9 14.2 0
00:58 1025 30.27 854 25.22 -5.1 22.9 70 -9.8 14.4 0
00:59 1025 30.27 854 25.22 -5.2 22.7 68 -10.1 13.8 0
01:00 1025 30.27 854 25.22 -5.4 22.4 69 -10.2 13.6 0
01:01 1025 30.27 854 25.22 -5.4 22.2 72 -9.8 14.4 0
01:02 1025 30.27 854 25.22 -5.2 22.7 70 -9.8 14.4 0
01:03 1025 30.27 854 25.22 -5 23.1 69 -9.8 14.3 0
01:04 1025 30.27 854 25.22 -5 23 67 -10.1 13.8 0
01:05 1025 30.27 854 25.22 -5.3 22.5 67 -10.6 13 0
01:06 1025 30.27 854 25.22 -5.7 21.7 69 -10.5 13.1 0
01:07 1025 30.27 854 25.22 -5.8 21.6 73 -10 14 0
01:08 1025 30.27 854 25.22 -5.6 21.9 73 -9.8 14.4 0
01:09 1025 30.27 854 25.22 -5.4 22.3 69 -10.2 13.6 0
01:10 1025 30.27 854 25.22 -5.5 22.1 68 -10.5 13 0
01:11 1025 30.27 854 25.22 -5.7 21.8 71 -10.1 13.8 0
01:12 1025 30.27 854 25.22 -5.7 21.8 71 -10.1 13.9 0
01:13 1025 30.27 854 25.22 -5.6 21.8 72 -9.8 14.3 0
01:14 1025 30.27 854 25.22 -5.5 22.1 70 -10.2 13.7 0
01:15 1025 30.27 854 25.22 -5.7 21.8 70 -10.4 13.3 0
01:16 1025 30.27 854 25.22 -5.8 21.6 72 -10.1 13.9 0
01:17 1025 30.27 854 25.22 -5.9 21.5 67 -11 12.3 0
01:18 1025 30.27 854 25.22 -6.3 20.7 71 -10.7 12.7 0
01:19 1025 30.27 854 25.22 -6.3 20.7 72 -10.6 12.9 0
01:20 1025 30.27 854 25.22 -6.4 20.5 69 -11.1 12 0
01:21 1025 30.27 854 25.22 -6.8 19.8 70 -11.3 11.6 0
01:22 1025 30.27 854 25.22 -7 19.3 73 -11 12.1 0
01:23 1025 30.27 854 25.22 -7.2 19.1 73 -11.2 11.8 0
01:24 1025 30.27 854 25.22 -7.1 19.2 74 -11 12.2 0
01:25 1025 30.27 854 25.22 -7.1 19.2 75 -10.8 12.5 0
01:26 1025 30.27 854 25.22 -6.9 19.5 74 -10.9 12.4 0
01:27 1025 30.27 854 25.22 -6.7 20 74 -10.6 13 0
01:28 1025 30.27 854 25.22 -6.4 20.5 72 -10.7 12.8 0
01:29 1025 30.27 854 25.22 -6.3 20.6 73 -10.5 13.1 0
01:30 1025 30.27 854 25.22 -6.2 20.9 71 -10.6 13 0
01:31 1025 30.27 854 25.22 -6.1 21 68 -11.2 11.9 0
01:32 1025 30.27 854 25.22 -6.5 20.3 71 -10.9 12.4 0
01:33 1025 30.27 854 25.22 -6.6 20.1 74 -10.5 13.2 0
01:34 1025 30.27 854 25.22 -6.3 20.7 73 -10.3 13.4 0
01:35 1025 30.27 854 25.22 -6 21.3 72 -10.2 13.6 0
01:36 1025 30.27 854 25.22 -5.7 21.7 71 -10.2 13.6 0
01:37 1025 30.27 854 25.22 -5.6 22 70 -10.2 13.6 0
01:38 1025 30.27 854 25.22 -5.6 22 70 -10.3 13.5 0
01:39 1025 30.27 854 25.22 -5.6 21.9 70 -10.3 13.5 0
01:40 1025 30.27 854 25.22 -5.7 21.7 69 -10.6 13 0
01:41 1025 30.27 854 25.22 -5.9 21.4 70 -10.5 13.1 0
01:42 1025 30.27 854 25.22 -6 21.1 69 -10.8 12.6 0
01:43 1025 30.27 854 25.22 -6.2 20.9 72 -10.4 13.3 0
01:44 1025 30.27 854 25.22 -6.1 21.1 72 -10.4 13.3 0
01:45 1025 30.27 854 25.22 -5.9 21.4 71 -10.3 13.4 0
01:46 1025 30.27 854 25.22 -5.8 21.5 68 -10.8 12.5 0
01:47 1025 30.27 854 25.22 -6.1 21 73 -10.3 13.5 0
01:48 1025 30.27 854 25.22 -6.1 21.1 72 -10.4 13.3 0
01:49 1025 30.27 854 25.22 -6 21.2 69 -10.8 12.5 0
01:50 1025 30.27 854 25.22 -6.2 20.8 72 -10.5 13 0
01:51 1025 30.27 854 25.22 -6.3 20.6 70 -11 12.3 0
01:52 1025 30.27 854 25.22 -6.4 20.4 74 -10.3 13.4 0
01:53 1025 30.27 854 25.22 -6.2 20.9 72 -10.4 13.3 0
01:54 1025 30.27 854 25.22 -6 21.2 70 -10.6 13 0
01:55 1025 30.27 854 25.22 -6 21.2 69 -10.8 12.6 0
01:56 1025 30.27 854 25.22 -6.2 20.8 70 -10.8 12.5 0
01:57 1025 30.27 854 25.22 -6.5 20.3 71 -10.9 12.4 0
01:58 1025 30.27 854 25.22 -6.8 19.7 72 -11.1 12 0
01:59 1025 30.27 854 25.22 -7 19.5 75 -10.6 12.9 0
02:00 1025 30.27 854 25.22 -6.8 19.8 74 -10.6 12.9 0
02:01 1025 30.27 854 25.22 -6.4 20.6 73 -10.4 13.3 0
02:02 1025 30.27 854 25.22 -5.8 21.5 71 -10.3 13.4 0
02:03 1025 30.27 854 25.22 -5.4 22.3 69 -10.2 13.7 0
02:04 1025 30.27 854 25.22 -5.2 22.7 68 -10.1 13.8 0
02:05 1025 30.27 854 25.22 -5.1 22.9 68 -10.1 13.8 0
02:06 1025 30.27 854 25.22 -5.2 22.7 67 -10.5 13.1 0
02:07 1025 30.27 854 25.22 -5.4 22.4 68 -10.3 13.5 0
02:08 1025 30.27 854 25.22 -5.4 22.3 66 -10.8 12.6 0
02:09 1025 30.27 854 25.22 -5.7 21.8 65 -11.1 11.9 0
02:10 1025 30.27 854 25.22 -6.1 21 70 -10.6 12.8 0
02:11 1025 30.27 854 25.22 -6.1 21 71 -10.5 13 0
02:12 1025 30.27 854 25.22 -5.9 21.4 69 -10.7 12.8 0
02:13 1025 30.27 854 25.22 -5.7 21.7 68 -10.7 12.8 0
02:14 1025 30.27 854 25.22 -5.6 21.9 69 -10.5 13.2 0
02:15 1025 30.27 854 25.22 -5.6 21.9 67 -10.8 12.6 0
02:16 1025 30.27 854 25.22 -5.7 21.8 69 -10.5 13.1 0
02:17 1025 30.27 854 25.22 -5.6 21.9 69 -10.4 13.2 0
02:18 1025 30.27 854 25.22 -5.5 22.2 65 -10.9 12.3 0
02:19 1024 30.24 854 25.22 -5.4 22.2 67 -10.6 12.9 0
02:20 1024 30.24 854 25.22 -5.4 22.2 68 -10.4 13.3 0
02:21 1025 30.27 854 25.22 -5.6 22 66 -10.9 12.4 0
02:22 1024 30.24 854 25.22 -5.9 21.3 66 -11.3 11.7 0
02:23 1024 30.24 854 25.22 -6.4 20.5 68 -11.3 11.6 0
02:24 1024 30.24 854 25.22 -6.6 20.1 72 -10.8 12.5 0
02:25 1024 30.24 854 25.22 -6.4 20.4 72 -10.7 12.8 0
02:26 1024 30.24 854 25.22 -6.2 20.8 70 -10.9 12.4 0
02:27 1025 30.27 854 25.22 -6 21.3 68 -10.9 12.3 0
02:28 1025 30.27 854 25.22 -5.9 21.3 70 -10.6 13 0
02:29 1025 30.27 854 25.22 -5.9 21.3 71 -10.4 13.2 0
02:30 1025 30.27 854 25.22 -5.8 21.5 69 -10.5 13 0
02:31 1025 30.27 854 25.22 -5.7 21.8 69 -10.5 13.1 0
02:32 1025 30.27 854 25.22 -5.6 21.9 68 -10.7 12.8 0
02:33 1025 30.27 854 25.22 -5.8 21.5 68 -10.8 12.5 0
02:34 1024 30.24 854 25.22 -5.9 21.4 66 -11.2 11.8 0
02:35 1024 30.24 854 25.22 -5.9 21.5 68 -10.8 12.5 0
02:36 1024 30.24 854 25.22 -6 21.3 69 -10.7 12.7 0
02:37 1024 30.24 854 25.22 -5.9 21.3 70 -10.5 13.1 0
02:38 1024 30.24 854 25.22 -5.7 21.7 69 -10.5 13.1 0
02:39 1024 30.24 854 25.22 -5.6 22 64 -11.2 11.8 0
02:40 1024 30.24 854 25.22 -5.9 21.4 66 -11.3 11.6 0
02:41 1024 30.24 854 25.22 -6.3 20.6 67 -11.5 11.3 0
02:42 1024 30.24 854 25.22 -6.7 19.9 71 -11.2 11.8 0
02:43 1024 30.24 854 25.22 -6.7 19.9 71 -11.1 12 0
02:44 1024 30.24 854 25.22 -6.7 20 68 -11.6 11.1 0
02:45 1024 30.24 854 25.22 -6.9 19.6 70 -11.5 11.3 0
02:46 1024 30.24 854 25.22 -6.9 19.5 73 -10.9 12.3 0
02:47 1024 30.24 854 25.22 -6.8 19.8 72 -11 12.2 0
02:48 1024 30.24 854 25.22 -6.7 19.9 70 -11.3 11.6 0
02:49 1024 30.24 854 25.22 -6.6 20.1 70 -11.1 12 0
02:50 1024 30.24 854 25.22 -6.5 20.3 68 -11.5 11.4 0
02:51 1024 30.24 854 25.22 -6.7 19.9 71 -11.2 11.9 0
02:52 1024 30.24 854 25.22 -6.5 20.3 72 -10.7 12.7 0
02:53 1024 30.24 854 25.22 -6 21.2 70 -10.7 12.7 0
02:54 1024 30.24 854 25.22 -5.8 21.6 66 -11.1 11.9 0
02:55 1024 30.24 854 25.22 -6 21.2 68 -11 12.2 0
02:56 1024 30.24 854 25.22 -6.1 21 69 -10.9 12.3 0
02:57 1024 30.24 854 25.22 -6.2 20.9 68 -11.2 11.8 0
02:58 1024 30.24 854 25.22 -6.3 20.6 71 -10.8 12.5 0
02:59 1024 30.24 854 25.22 -6.2 20.9 69 -10.9 12.3 0
03:00 1024 30.24 854 25.22 -6 21.3 68 -11 12.2 0
03:01 1024 30.24 854 25.22 -6.1 21 66 -11.4 11.4 0
03:02 1024 30.24 854 25.22 -6.7 20 68 -11.6 11.1 0
03:03 1024 30.24 854 25.22 -7 19.4 71 -11.4 11.5 0
03:04 1024 30.24 854 25.22 -7.1 19.2 70 -11.7 11 0
03:05 1024 30.24 854 25.22 -7.3 19 72 -11.5 11.2 0
03:06 1024 30.24 854 25.22 -7.4 18.7 70 -11.9 10.6 0
03:07 1024 30.24 854 25.22 -7.6 18.4 73 -11.6 11.2 0
03:08 1024 30.24 854 25.22 -7.5 18.6 72 -11.8 10.8 0
03:09 1024 30.24 854 25.22 -7.5 18.5 71 -11.9 10.6 0
03:10 1024 30.24 854 25.22 -7.6 18.3 73 -11.6 11.1 0
03:11 1024 30.24 854 25.22 -7.4 18.7 75 -11.1 11.9 0
03:12 1024 30.24 854 25.22 -6.9 19.7 71 -11.3 11.7 0
03:13 1024 30.24 854 25.22 -6.7 19.9 67 -11.9 10.6 0
03:14 1024 30.24 854 25.22 -7.1 19.2 69 -11.9 10.6 0
03:15 1024 30.24 854 25.22 -7.4 18.7 71 -11.8 10.7 0
03:16 1024 30.24 854 25.22 -7.5 18.5 72 -11.8 10.7 0
03:17 1024 30.24 854 25.22 -7.6 18.3 71 -12 10.5 0
03:18 1024 30.24 854 25.22 -7.8 18 72 -12.1 10.3 0
03:19 1024 30.24 854 25.22 -7.9 17.7 74 -11.9 10.6 0
03:20 1024 30.24 854 25.22 -7.9 17.8 75 -11.6 11.1 0
03:21 1024 30.24 854 25.22 -7.8 17.9 72 -12 10.4 0
03:22 1024 30.24 854 25.22 -7.9 17.8 76 -11.4 11.4 0
03:23 1024 30.24 854 25.22 -7.7 18.2 74 -11.5 11.3 0
03:24 1024 30.24 854 25.22 -7.6 18.4 73 -11.6 11.1 0
03:25 1024 30.24 854 25.22 -7.5 18.4 71 -12 10.4 0
03:26 1024 30.24 854 25.22 -7.7 18.1 72 -11.9 10.6 0
03:27 1024 30.24 854 25.22 -7.7 18.2 76 -11.2 11.9 0
03:28 1024 30.24 854 25.22 -7.2 19 74 -11.2 11.9 0
03:29 1024 30.24 854 25.22 -7.1 19.3 70 -11.6 11.1 0
03:30 1024 30.24 854 25.22 -7.1 19.2 70 -11.6 11.1 0
03:31 1024 30.24 854 25.22 -7.3 18.9 71 -11.7 10.9 0
03:32 1024 30.24 854 25.22 -7.4 18.6 71 -11.7 10.9 0
03:33 1024 30.24 854 25.22 -7.6 18.4 69 -12.2 10 0
03:34 1024 30.24 854 25.22 -7.8 17.9 74 -11.7 10.9 0
03:35 1024 30.24 854 25.22 -7.8 18.1 77 -11.2 11.9 0
03:36 1024 30.24 854 25.22 -7.1 19.2 75 -10.8 12.6 0
03:37 1024 30.24 854 25.22 -6.4 20.5 71 -10.8 12.6 0
03:38 1024 30.24 854 25.22 -6 21.2 69 -10.8 12.6 0
03:39 1024 30.24 854 25.22 -5.9 21.3 68 -11 12.3 0
03:40 1024 30.24 854 25.22 -6 21.2 68 -11 12.1 0
03:41 1024 30.24 854 25.22 -6.2 20.8 68 -11.3 11.7 0
03:42 1024 30.24 854 25.22 -6.5 20.3 69 -11.4 11.6 0
03:43 1024 30.24 854 25.22 -6.8 19.8 70 -11.4 11.5 0
03:44 1024 30.24 854 25.22 -7.2 19.1 67 -12.3 9.8 0
03:45 1024 30.24 854 25.22 -7.5 18.5 76 -11.1 12 0
03:46 1024 30.24 854 25.22 -7.2 19.1 73 -11.3 11.7 0
03:47 1024 30.24 854 25.22 -7 19.4 68 -11.9 10.6 0
03:48 1024 30.24 854 25.22 -7.3 18.8 71 -11.7 10.9 0
03:49 1024 30.24 854 25.22 -7.5 18.6 74 -11.3 11.7 0
03:50 1024 30.24 854 25.22 -7.3 18.8 71 -11.7 11 0
03:51 1024 30.24 854 25.22 -7.4 18.6 73 -11.4 11.4 0
03:52 1025 30.27 854 25.22 -7.5 18.5 73 -11.5 11.4 0
03:53 1025 30.27 854 25.22 -7.3 18.8 76 -11 12.3 0
03:54 1025 30.27 854 25.22 -6.9 19.6 73 -10.9 12.4 0
03:55 1025 30.27 854 25.22 -6.5 20.3 72 -10.7 12.7 0
03:56 1025 30.27 854 25.22 -6.2 20.8 71 -10.7 12.8 0
03:57 1025 30.27 854 25.22 -6.2 20.8 71 -10.6 12.9 0
03:58 1025 30.27 854 25.22 -6.3 20.7 71 -10.8 12.6 0
03:59 1025 30.27 854 25.22 -6.2 20.9 71 -10.6 12.9 0
04:00 1025 30.27 854 25.22 -6.1 20.9 67 -11.4 11.5 0
04:01 1025 30.27 854 25.22 -6.5 20.3 69 -11.3 11.6 0
04:02 1025 30.27 854 25.22 -6.7 19.9 69 -11.4 11.5 0
04:03 1025 30.27 854 25.22 -6.9 19.5 70 -11.5 11.3 0
04:04 1025 30.27 854 25.22 -7.1 19.2 73 -11.1 12 0
04:05 1025 30.27 854 25.22 -7 19.4 72 -11.2 11.9 0
04:06 1025 30.27 854 25.22 -7.3 18.9 69 -12 10.5 0
04:07 1025 30.27 854 25.22 -7.6 18.3 73 -11.7 11 0
04:08 1025 30.27 854 25.22 -7.6 18.3 70 -12.1 10.2 0
04:09 1025 30.27 854 25.22 -7.8 18 77 -11.1 11.9 0
04:10 1025 30.27 854 25.22 -7.3 18.9 76 -10.8 12.5 0
04:11 1025 30.27 854 25.22 -6.6 20.1 74 -10.5 13.1 0
04:12 1025 30.27 854 25.22 -6 21.2 61 -12.3 9.8 0
04:13 1025 30.27 854 25.22 -6.2 20.8 69 -11.1 12.1 0
04:14 1025 30.27 854 25.22 -6.4 20.5 70 -11 12.3 0
04:15 1025 30.27 854 25.22 -6.3 20.7 69 -11 12.1 0
04:16 1025 30.27 854 25.22 -6 21.2 66 -11.3 11.7 0
04:17 1025 30.27 854 25.22 -6 21.2 66 -11.3 11.6 0
04:18 1025 30.27 854 25.22 -6 21.2 67 -11.2 11.9 0
04:19 1025 30.27 854 25.22 -6.1 21 67 -11.3 11.7 0
04:20 1025 30.27 854 25.22 -6.2 20.8 67 -11.4 11.4 0
04:21 1025 30.27 854 25.22 -6.2 20.8 68 -11.2 11.8 0
04:22 1025 30.27 854 25.22 -6.2 20.9 67 -11.4 11.5 0
04:23 1025 30.27 854 25.22 -6.2 20.8 67 -11.5 11.3 0
04:24 1025 30.27 854 25.22 -6.1 21 67 -11.3 11.7 0
04:25 1025 30.27 854 25.22 -5.7 21.7 65 -11.2 11.9 0
04:26 1025 30.27 854 25.22 -5.5 22 65 -11.1 12.1 0
04:27 1025 30.27 854 25.22 -5.6 21.8 65 -11.2 11.9 0
04:28 1025 30.27 854 25.22 -5.8 21.5 66 -11.1 12 0
04:29 1025 30.27 854 25.22 -6.1 21 66 -11.4 11.4 0
04:30 1025 30.27 854 25.22 -6.5 20.3 67 -11.7 11 0
04:31 1025 30.27 854 25.22 -6.8 19.7 68 -11.8 10.8 0
04:32 1025 30.27 854 25.22 -7.1 19.2 69 -11.8 10.7 0
04:33 1025 30.27 854 25.22 -7.3 18.9 69 -12 10.5 0
04:34 1025 30.27 854 25.22 -7.3 18.8 71 -11.8 10.8 0
04:35 1025 30.27 854 25.22 -7.3 19 70 -11.8 10.8 0
04:36 1025 30.27 854 25.22 -7.1 19.2 70 -11.6 11.1 0
04:37 1025 30.27 854 25.22 -7 19.4 70 -11.6 11.2 0
04:38 1025 30.27 854 25.22 -6.8 19.7 70 -11.5 11.3 0
04:39 1025 30.27 854 25.22 -6.8 19.8 71 -11.2 11.8 0
04:40 1025 30.27 854 25.22 -6.6 20.2 70 -11.1 11.9 0
04:41 1025 30.27 854 25.22 -6.5 20.3 70 -11.1 11.9 0
04:42 1025 30.27 854 25.22 -6.4 20.5 69 -11.2 11.9 0
04:43 1025 30.27 854 25.22 -6.5 20.4 69 -11.2 11.9 0
04:44 1025 30.27 854 25.22 -6.6 20 70 -11.3 11.7 0
04:45 1025 30.27 854 25.22 -6.8 19.7 72 -11.1 12 0
04:46 1025 30.27 854 25.22 -6.9 19.6 72 -11.1 12 0
04:47 1025 30.27 854 25.22 -6.8 19.8 73 -10.9 12.4 0
04:48 1025 30.27 854 25.22 -6.6 20.2 72 -10.8 12.5 0
04:49 1025 30.27 854 25.22 -6.5 20.4 72 -10.7 12.8 0
04:50 1025 30.27 854 25.22 -6.2 20.9 71 -10.7 12.7 0
04:51 1025 30.27 854 25.22 -6.1 21.1 70 -10.6 12.9 0
04:52 1025 30.27 855 25.25 -5.9 21.3 70 -10.5 13 0
04:53 1025 30.27 855 25.25 -5.8 21.5 70 -10.5 13.2 0
04:54 1025 30.27 854 25.22 -5.7 21.7 68 -10.6 12.9 0
04:55 1025 30.27 854 25.22 -5.8 21.5 69 -10.7 12.7 0
04:56 1025 30.27 854 25.22 -5.9 21.4 70 -10.6 12.9 0
04:57 1025 30.27 854 25.22 -5.9 21.4 69 -10.6 12.9 0
04:58 1025 30.27 854 25.22 -5.8 21.6 70 -10.5 13.1 0
04:59 1025 30.27 854 25.22 -5.6 21.9 68 -10.5 13 0
05:00 1025 30.27 854 25.22 -5.6 21.9 68 -10.6 13 0
05:01 1025 30.27 854 25.22 -5.7 21.8 68 -10.6 12.8 0
05:02 1025 30.27 854 25.22 -6 21.3 69 -10.8 12.5 0
05:03 1025 30.27 854 25.22 -6.2 20.8 69 -11 12.2 0
05:04 1025 30.27 854 25.22 -6.3 20.6 69 -11.1 12.1 0
05:05 1025 30.27 854 25.22 -6.2 20.8 70 -10.9 12.5 0
05:06 1025 30.27 854 25.22 -6 21.3 69 -10.8 12.5 0
05:07 1025 30.27 854 25.22 -5.6 21.9 67 -10.7 12.7 0
05:08 1025 30.27 854 25.22 -5.4 22.2 66 -10.7 12.7 0
05:09 1025 30.27 854 25.22 -5.4 22.2 66 -10.8 12.5 0
05:10 1025 30.27 854 25.22 -5.5 22 67 -10.8 12.6 0
05:11 1025 30.27 854 25.22 -5.7 21.8 67 -10.8 12.6 0
05:12 1025 30.27 854 25.22 -5.9 21.5 68 -10.9 12.3 0
05:13 1025 30.27 854 25.22 -6 21.2 68 -10.9 12.4 0
05:14 1025 30.27 854 25.22 -6.1 21.1 69 -10.9 12.5 0
05:15 1025 30.27 854 25.22 -6 21.1 69 -10.8 12.6 0
05:16 1025 30.27 854 25.22 -5.9 21.3 69 -10.8 12.6 0
05:17 1025 30.27 854 25.22 -5.8 21.5 69 -10.7 12.8 0
05:18 1025 30.27 854 25.22 -5.6 21.9 68 -10.5 13.1 0
05:19 1025 30.27 854 25.22 -5.4 22.2 67 -10.5 13 0
05:20 1025 30.27 854 25.22 -5.3 22.5 67 -10.5 13.1 0
05:21 1025 30.27 854 25.22 -5.2 22.6 67 -10.5 13.1 0
05:22 1025 30.27 854 25.22 -5 23 66 -10.4 13.3 0
05:23 1025 30.27 854 25.22 -4.9 23.2 66 -10.4 13.3 0
05:24 1025 30.27 854 25.22 -4.8 23.3 65 -10.4 13.3 0
05:25 1025 30.27 854 25.22 -4.7 23.5 65 -10.4 13.3 0
05:26 1025 30.27 854 25.22 -4.7 23.6 64 -10.5 13.2 0
05:27 1025 30.27 854 25.22 -4.7 23.6 64 -10.5 13 0
05:28 1025 30.27 854 25.22 -4.7 23.5 64 -10.5 13 0
05:29 1025 30.27 854 25.22 -4.8 23.4 64 -10.5 13 0
05:30 1025 30.27 854 25.22 -4.8 23.3 64 -10.6 13 0
05:31 1025 30.27 854 25.22 -4.9 23.1 65 -10.6 13 0
05:32 1025 30.27 854 25.22 -4.9 23.2 65 -10.6 13 0
05:33 1025 30.27 854 25.22 -4.8 23.3 64 -10.6 12.9 0
05:34 1025 30.27 854 25.22 -4.8 23.4 63 -10.7 12.7 0
05:35 1025 30.27 854 25.22 -4.9 23.2 64 -10.7 12.7 0
05:36 1025 30.27 854 25.22 -4.9 23.2 64 -10.7 12.7 0
05:37 1025 30.27 854 25.22 -4.9 23.1 64 -10.7 12.7 0
05:38 1025 30.27 854 25.22 -5 23 65 -10.7 12.8 0
05:39 1025 30.27 854 25.22 -4.9 23.1 64 -10.7 12.8 0
05:40 1025 30.27 854 25.22 -4.9 23.1 64 -10.7 12.8 0
05:41 1025 30.27 854 25.22 -4.9 23.2 64 -10.6 12.9 0
05:42 1025 30.27 854 25.22 -4.9 23.2 64 -10.7 12.8 0
05:43 1025 30.27 854 25.22 -4.9 23.2 64 -10.7 12.7 0
05:44 1025 30.27 854 25.22 -4.9 23.2 64 -10.7 12.8 0
05:45 1025 30.27 854 25.22 -5 23 65 -10.6 12.8 0
05:46 1025 30.27 854 25.22 -5.1 22.8 65 -10.7 12.7 0
05:47 1025 30.27 854 25.22 -5.2 22.6 65 -10.8 12.6 0
05:48 1025 30.27 854 25.22 -5.3 22.5 66 -10.8 12.6 0
05:49 1025 30.27 854 25.22 -5.4 22.2 66 -10.8 12.6 0
05:50 1025 30.27 854 25.22 -5.5 22.1 67 -10.7 12.7 0
05:51 1025 30.27 854 25.22 -5.4 22.4 65 -10.9 12.4 0
05:52 1025 30.27 854 25.22 -5.3 22.5 65 -10.9 12.3 0
05:53 1025 30.27 854 25.22 -5.5 22.1 65 -11.1 12 0
05:54 1025 30.27 854 25.22 -5.8 21.6 65 -11.3 11.6 0
05:55 1025 30.27 854 25.22 -6.1 21 67 -11.3 11.6 0
05:56 1025 30.27 854 25.22 -6.3 20.6 67 -11.6 11.2 0
05:57 1025 30.27 854 25.22 -6.5 20.3 66 -11.8 10.7 0
05:58 1025 30.27 854 25.22 -6.9 19.6 67 -12 10.4 0
05:59 1025 30.27 854 25.22 -7.4 18.7 69 -12.1 10.2 0
06:00 1025 30.27 854 25.22 -7.7 18.2 71 -12.1 10.3 0
06:01 1025 30.27 854 25.22 -7.9 17.7 73 -12 10.4 0
06:02 1025 30.27 854 25.22 -8.1 17.5 73 -12.1 10.3 0
06:03 1025 30.27 854 25.22 -8.2 17.3 75 -11.9 10.5 0
06:04 1025 30.27 854 25.22 -8.3 17.1 75 -11.9 10.6 0
06:05 1025 30.27 854 25.22 -8.4 17 74 -12.2 10.1 0
06:06 1024 30.24 854 25.22 -8.5 16.7 76 -12 10.3 0
06:07 1024 30.24 854 25.22 -8.5 16.6 76 -12 10.4 0
06:08 1024 30.24 854 25.22 -8.5 16.6 77 -11.8 10.7 0
06:09 1024 30.24 854 25.22 -8.6 16.6 74 -12.4 9.7 0
06:10 1024 30.24 854 25.22 -8.8 16.1 73 -12.9 8.9 0
06:11 1024 30.24 854 25.22 -9.2 15.5 76 -12.7 9.1 0
06:12 1024 30.24 854 25.22 -9.4 15.2 78 -12.4 9.6 0
06:13 1024 30.24 854 25.22 -9.3 15.3 79 -12.4 9.8 0
06:14 1024 30.24 854 25.22 -9.1 15.6 79 -12.1 10.2 0
06:15 1024 30.24 854 25.22 -8.8 16.3 79 -11.8 10.7 0
06:16 1024 30.24 854 25.22 -8.5 16.7 75 -12.1 10.2 0
06:17 1024 30.24 853 25.19 -8.6 16.5 75 -12.2 10 0
06:18 1024 30.24 853 25.19 -8.8 16.2 76 -12.3 9.9 0
06:19 1024 30.24 853 25.19 -9 15.9 76 -12.4 9.7 0
06:20 1024 30.24 854 25.22 -9.1 15.6 76 -12.6 9.3 0
06:21 1024 30.24 854 25.22 -9.3 15.3 76 -12.7 9.2 0
06:22 1024 30.24 854 25.22 -9.3 15.2 77 -12.7 9.1 0
06:23 1024 30.24 854 25.22 -9.4 15 78 -12.6 9.3 0
06:24 1024 30.24 854 25.22 -9.4 15.1 77 -12.6 9.3 0
06:25 1024 30.24 854 25.22 -9.4 15.1 77 -12.7 9.1 0
06:26 1024 30.24 854 25.22 -9.5 15 78 -12.6 9.3 0
06:27 1024 30.24 854 25.22 -9.4 15.1 79 -12.5 9.6 0
06:28 1024 30.24 854 25.22 -9.3 15.3 78 -12.4 9.6 0
06:29 1024 30.24 854 25.22 -9.2 15.5 75 -12.8 9 0
06:30 1024 30.24 854 25.22 -9.4 15.1 75 -13 8.5 0
06:31 1024 30.24 854 25.22 -9.6 14.7 77 -13 8.6 0
06:32 1024 30.24 854 25.22 -9.7 14.6 80 -12.6 9.4 0
06:33 1024 30.24 854 25.22 -9.4 15 80 -12.3 9.9 0
06:34 1024 30.24 854 25.22 -9.1 15.6 78 -12.2 10 0
06:35 1024 30.24 854 25.22 -8.9 15.9 76 -12.4 9.8 0
06:36 1024 30.24 854 25.22 -9 15.8 75 -12.7 9.1 0
06:37 1024 30.24 854 25.22 -9.1 15.7 78 -12.2 10 0
06:38 1024 30.24 854 25.22 -9 15.9 77 -12.3 9.8 0
06:39 1024 30.24 854 25.22 -9 15.8 76 -12.5 9.6 0
06:40 1024 30.24 853 25.19 -9 15.7 77 -12.4 9.7 0
06:41 1024 30.24 854 25.22 -9.1 15.7 77 -12.4 9.6 0
06:42 1024 30.24 853 25.19 -9.1 15.7 77 -12.4 9.8 0
06:43 1024 30.24 853 25.19 -8.9 16 78 -12.1 10.3 0
06:44 1024 30.24 853 25.19 -8.7 16.3 76 -12.2 10.1 0
06:45 1024 30.24 853 25.19 -8.6 16.6 76 -12 10.4 0
06:46 1024 30.24 853 25.19 -8.3 17.1 75 -12 10.4 0
06:47 1024 30.24 853 25.19 -8.2 17.2 74 -12 10.4 0
06:48 1024 30.24 853 25.19 -8.2 17.3 74 -12.1 10.2 0
06:49 1024 30.24 853 25.19 -8.3 17.1 73 -12.3 9.8 0
06:50 1024 30.24 853 25.19 -8.4 16.8 74 -12.3 9.9 0
06:51 1024 30.24 853 25.19 -8.6 16.5 75 -12.3 9.8 0
06:52 1024 30.24 853 25.19 -8.6 16.5 76 -12.1 10.2 0
06:53 1024 30.24 853 25.19 -8.5 16.7 75 -12.1 10.2 0
06:54 1024 30.24 853 25.19 -8.4 16.9 74 -12.3 9.9 0
06:55 1024 30.24 853 25.19 -8.5 16.7 75 -12.2 10.1 0
06:56 1024 30.24 853 25.19 -8.5 16.7 75 -12.2 10.1 0
06:57 1024 30.24 853 25.19 -8.4 16.9 77 -11.8 10.8 0
06:58 1024 30.24 853 25.19 -8.1 17.4 76 -11.6 11.1 0
06:59 1024 30.24 853 25.19 -7.7 18.1 75 -11.5 11.4 0
07:00 1024 30.24 853 25.19 -7.4 18.6 74 -11.4 11.5 0
07:01 1024 30.24 853 25.19 -7.3 18.9 73 -11.4 11.6 0
07:02 1024 30.24 853 25.19 -7.1 19.1 72 -11.3 11.6 0
07:03 1024 30.24 853 25.19 -7.1 19.3 71 -11.4 11.5 0
07:04 1024 30.24 853 25.19 -7.1 19.3 72 -11.4 11.5 0
07:05 1024 30.24 853 25.19 -7 19.4 72 -11.2 11.8 0
07:06 1024 30.24 853 25.19 -6.8 19.7 71 -11.3 11.6 0
07:07 1024 30.24 853 25.19 -6.8 19.8 69 -11.5 11.3 0
07:08 1024 30.24 853 25.19 -7 19.4 69 -11.8 10.8 0
07:09 1024 30.24 853 25.19 -7.3 18.8 71 -11.7 11 0
07:10 1024 30.24 853 25.19 -7.6 18.4 71 -11.9 10.6 0
07:11 1024 30.24 853 25.19 -7.8 18 72 -12 10.4 0
07:12 1024 30.24 853 25.19 -7.7 18.1 72 -11.8 10.7 0
07:13 1024 30.24 853 25.19 -7.4 18.8 71 -11.8 10.8 0
07:14 1024 30.24 853 25.19 -7.2 19 69 -11.9 10.5 0
07:15 1024 30.24 853 25.19 -7.3 18.9 68 -12.2 10 0
07:16 1024 30.24 853 25.19 -7.3 18.8 69 -12.2 10.1 0
07:17 1024 30.24 853 25.19 -7.2 19 68 -12.1 10.2 0
07:18 1024 30.24 853 25.19 -7.3 18.9 69 -12.1 10.3 0
07:19 1024 30.24 853 25.19 -7.2 19 70 -11.9 10.6 0
07:20 1024 30.24 853 25.19 -7.1 19.3 68 -12 10.4 0
07:21 1024 30.24 853 25.19 -7.2 19 69 -12 10.4 0
07:22 1024 30.24 853 25.19 -7.3 18.8 69 -12.1 10.2 0
07:23 1024 30.24 853 25.19 -7.4 18.7 69 -12.1 10.2 0
07:24 1024 30.24 853 25.19 -7.6 18.4 69 -12.3 9.8 0
07:25 1024 30.24 853 25.19 -7.8 18 70 -12.4 9.7 0
07:26 1024 30.24 853 25.19 -8.1 17.5 70 -12.7 9.2 0
07:27 1024 30.24 853 25.19 -8.3 17 71 -12.8 9 0
07:28 1024 30.24 853 25.19 -8.6 16.6 73 -12.5 9.5 0
07:29 1024 30.24 853 25.19 -8.4 17 77 -11.8 10.8 0
07:30 1024 30.24 853 25.19 -7.8 17.9 73 -11.9 10.6 0
07:31 1024 30.24 853 25.19 -7.6 18.4 71 -11.9 10.5 0
07:32 1024 30.24 853 25.19 -7.5 18.5 68 -12.4 9.7 0
07:33 1024 30.24 853 25.19 -7.7 18.1 71 -12.2 10.1 0
07:34 1024 30.24 853 25.19 -7.8 18.1 72 -12 10.4 0
07:35 1024 30.24 853 25.19 -7.7 18.2 70 -12.2 10.1 0
07:36 1024 30.24 853 25.19 -7.7 18.2 70 -12.2 10 0
07:37 1024 30.24 853 25.19 -7.8 18.1 72 -12 10.4 0
07:38 1024 30.24 853 25.19 -7.8 18 73 -11.8 10.7 0
07:39 1024 30.24 853 25.19 -7.7 18.2 72 -11.9 10.5 0
07:40 1024 30.24 853 25.19 -7.8 18.1 71 -12.1 10.2 0
07:41 1024 30.24 853 25.19 -7.7 18.1 72 -12 10.4 0
07:42 1024 30.24 853 25.19 -7.6 18.3 72 -11.8 10.7 0
07:43 1024 30.24 853 25.19 -7.4 18.7 71 -11.7 10.9 0
07:44 1024 30.24 853 25.19 -7.2 19.1 71 -11.7 11 0
07:45 1024 30.24 853 25.19 -7.1 19.2 70 -11.7 10.9 0
07:46 1024 30.24 853 25.19 -7.1 19.3 71 -11.5 11.3 0
07:47 1024 30.24 853 25.19 -6.9 19.6 70 -11.5 11.4 0
07:48 1024 30.24 853 25.19 -6.7 19.9 69 -11.5 11.3 0
07:49 1024 30.24 853 25.19 -6.6 20 69 -11.5 11.3 0
07:50 1024 30.24 853 25.19 -6.6 20.1 69 -11.3 11.6 0
07:51 1024 30.24 853 25.19 -6.6 20.2 66 -11.9 10.7 0
07:52 1024 30.24 853 25.19 -6.7 19.9 65 -12.2 10 0
07:53 1024 30.24 853 25.19 -7 19.4 66 -12.3 9.8 0
07:54 1024 30.24 853 25.19 -7.2 19.1 68 -12.1 10.1 0
07:55 1024 30.24 853 25.19 -7.2 19.1 69 -12 10.4 0
07:56 1024 30.24 853 25.19 -6.9 19.5 68 -11.9 10.6 0
07:57 1024 30.24 853 25.19 -6.8 19.8 67 -11.9 10.5 0
07:58 1024 30.24 853 25.19 -6.7 20 67 -11.9 10.7 0
07:59 1024 30.24 853 25.19 -6.6 20.2 67 -11.8 10.8 0
08:00 1024 30.24 853 25.19 -6.5 20.3 66 -11.8 10.7 0
08:01 1024 30.24 853 25.19 -6.4 20.5 66 -11.8 10.8 0
08:02 1024 30.24 853 25.19 -6.4 20.5 65 -12 10.5 0
08:03 1024 30.24 853 25.19 -6.6 20.2 65 -12.2 10.1 0
08:04 1024 30.24 853 25.19 -6.9 19.7 66 -12.2 10 0
08:05 1024 30.24 853 25.19 -7.1 19.3 68 -12.1 10.3 0
08:06 1024 30.24 853 25.19 -7 19.5 68 -11.9 10.5 0
08:07 1024 30.24 853 25.19 -6.7 19.9 67 -11.8 10.8 0
08:08 1024 30.24 853 25.19 -6.5 20.2 66 -11.9 10.6 0
08:09 1024 30.24 853 25.19 -6.4 20.4 67 -11.7 11 0
08:10 1024 30.24 853 25.19 -6.3 20.7 66 -11.6 11.2 0
08:11 1024 30.24 853 25.19 -6 21.2 65 -11.5 11.3 0
08:12 1024 30.24 853 25.19 -5.8 21.6 64 -11.6 11.1 0
08:13 1024 30.24 853 25.19 -5.8 21.6 63 -11.7 10.9 0
08:14 1024 30.24 853 25.19 -5.9 21.4 64 -11.7 10.9 0
08:15 1024 30.24 853 25.19 -6 21.2 63 -11.9 10.7 0
08:16 1024 30.24 853 25.19 -6.1 21 64 -11.8 10.7 0
08:17 1024 30.24 853 25.19 -6 21.2 64 -11.7 10.9 0
08:18 1024 30.24 853 25.19 -5.9 21.5 64 -11.7 11 0
08:19 1024 30.24 853 25.19 -5.7 21.7 64 -11.5 11.3 0
08:20 1024 30.24 853 25.19 -5.6 21.8 64 -11.4 11.5 0
08:21 1024 30.24 853 25.19 -5.4 22.2 64 -11.2 11.8 0
08:22 1024 30.24 853 25.19 -5.2 22.6 63 -11.2 11.9 0
08:23 1024 30.24 853 25.19 -5 22.9 63 -11.1 12 0
08:24 1024 30.24 853 25.19 -4.9 23.1 62 -11.1 11.9 0
08:25 1024 30.24 853 25.19 -4.9 23.2 62 -11.2 11.9 0
08:26 1024 30.24 853 25.19 -4.9 23.2 62 -11.2 11.9 0
08:27 1024 30.24 853 25.19 -4.8 23.3 62 -11.1 12.1 0
08:28 1024 30.24 853 25.19 -4.8 23.4 62 -11 12.2 0
08:29 1024 30.24 853 25.19 -4.7 23.6 62 -10.9 12.4 0
08:30 1024 30.24 853 25.19 -4.6 23.7 62 -10.8 12.5 0
08:31 1024 30.24 853 25.19 -4.5 23.9 62 -10.8 12.6 0
08:32 1024 30.24 853 25.19 -4.4 24 62 -10.7 12.8 0
08:33 1024 30.24 853 25.19 -4.4 24.1 61 -10.9 12.4 0
08:34 1024 30.24 853 25.19 -4.3 24.2 60 -10.9 12.4 0
08:35 1024 30.24 853 25.19 -4.3 24.2 60 -10.9 12.4 0
08:36 1024 30.24 853 25.19 -4.4 24.2 60 -10.9 12.3 0
08:37 1024 30.24 853 25.19 -4.4 24.1 61 -10.8 12.6 0
08:38 1024 30.24 853 25.19 -4.4 24 62 -10.7 12.7 0
08:39 1024 30.24 853 25.19 -4.4 24 61 -10.8 12.6 0
08:40 1024 30.24 853 25.19 -4.5 23.9 61 -10.9 12.4 0
08:41 1024 30.24 853 25.19 -4.6 23.7 62 -10.9 12.4 0
08:42 1024 30.24 853 25.19 -4.7 23.6 62 -10.9 12.3 0
08:43 1024 30.24 853 25.19 -4.7 23.5 62 -10.9 12.3 0
08:44 1024 30.24 853 25.19 -4.7 23.6 64 -10.6 13 0
08:45 1024 30.24 853 25.19 -4.5 23.8 62 -10.8 12.6 0
08:46 1024 30.24 853 25.19 -4.5 23.8 62 -10.7 12.8 0
08:47 1024 30.24 853 25.19 -4.6 23.8 63 -10.6 13 0
08:48 1024 30.24 853 25.19 -4.5 23.8 63 -10.6 12.9 0
08:49 1024 30.24 853 25.19 -4.5 23.9 63 -10.4 13.3 0
08:50 1024 30.24 853 25.19 -4.3 24.2 63 -10.4 13.2 0
08:51 1023 30.21 853 25.19 -4.2 24.4 63 -10.2 13.7 0
08:52 1023 30.21 853 25.19 -4.1 24.6 62 -10.4 13.2 0
08:53 1023 30.21 853 25.19 -4.1 24.7 61 -10.5 13 0
08:54 1023 30.21 853 25.19 -4 24.8 61 -10.4 13.3 0
08:55 1023 30.21 853 25.19 -4 24.9 62 -10.2 13.7 0
08:56 1023 30.21 852 25.16 -3.9 24.9 62 -10.1 13.7 0
08:57 1023 30.21 852 25.16 -3.9 24.9 64 -9.9 14.3 0
08:58 1023 30.21 852 25.16 -3.9 25 63 -9.8 14.3 0
08:59 1023 30.21 852 25.16 -3.7 25.3 62 -10 14.1 0
09:00 1023 30.21 852 25.16 -3.5 25.7 61 -9.9 14.1 0
09:01 1023 30.21 852 25.16 -3.3 26 59 -10.2 13.6 0
09:02 1023 30.21 853 25.19 -3 26.5 59 -10.1 13.9 0
09:03 1023 30.21 852 25.16 -2.9 26.9 58 -10 14 0
09:04 1023 30.21 852 25.16 -2.7 27.1 57 -10.2 13.6 0
09:05 1023 30.21 852 25.16 -2.4 27.6 55 -10.2 13.6 0
09:06 1023 30.21 853 25.19 -2.1 28.2 54 -10.2 13.7 0
09:07 1023 30.21 852 25.16 -1.9 28.5 54 -10.1 13.8 0
09:08 1023 30.21 852 25.16 -1.8 28.8 54 -9.8 14.4 0
09:09 1023 30.21 852 25.16 -1.7 29 56 -9.3 15.2 0
09:10 1023 30.21 852 25.16 -1.6 29.1 57 -9 15.8 0
09:11 1023 30.21 852 25.16 -1.5 29.2 58 -8.8 16.2 0
09:12 1023 30.21 852 25.16 -1.5 29.3 59 -8.6 16.6 0
09:13 1023 30.21 852 25.16 -1.5 29.3 58 -8.7 16.3 0
09:14 1023 30.21 852 25.16 -1.6 29.1 58 -8.8 16.1 0
09:15 1023 30.21 852 25.16 -1.6 29.1 58 -8.9 16 0
09:16 1023 30.21 852 25.16 -1.6 29.1 59 -8.7 16.4 0
09:17 1023 30.21 852 25.16 -1.6 29.2 59 -8.6 16.6 0
09:18 1023 30.21 852 25.16 -1.5 29.3 59 -8.6 16.5 0
09:19 1023 30.21 852 25.16 -1.5 29.3 58 -8.8 16.2 0
09:20 1023 30.21 852 25.16 -1.3 29.6 58 -8.6 16.5 0
09:21 1023 30.21 852 25.16 -1.2 29.8 56 -8.8 16.1 0
09:22 1023 30.21 852 25.16 -1 30.2 55 -8.8 16.1 0
09:23 1023 30.21 852 25.16 -0.8 30.6 55 -8.8 16.2 0
09:24 1023 30.21 852 25.16 -0.6 31 52 -9.2 15.5 0
09:25 1023 30.21 852 25.16 -0.4 31.3 52 -9.2 15.4 0
09:26 1023 30.21 852 25.16 -0.3 31.5 51 -9.2 15.4 0
09:27 1023 30.21 852 25.16 -0.3 31.5 51 -9.1 15.6 0
09:28 1023 30.21 852 25.16 -0.3 31.4 50 -9.6 14.7 0
09:29 1023 30.21 852 25.16 -0.4 31.3 50 -9.5 14.9 0
09:30 1023 30.21 852 25.16 -0.4 31.3 51 -9.3 15.2 0
09:31 1023 30.21 852 25.16 -0.4 31.3 52 -9.2 15.5 0
09:32 1023 30.21 852 25.16 -0.3 31.6 52 -8.8 16.1 0
09:33 1023 30.21 852 25.16 -0.1 31.9 51 -9.1 15.6 0
09:34 1023 30.21 852 25.16 0.1 32.1 51 -9 15.7 0
09:35 1023 30.21 852 25.16 0.3 32.5 47 -9.7 14.5 0
09:36 1023 30.21 852 25.16 0.4 32.8 50 -8.8 16.1 0
09:37 1023 30.21 852 25.16 0.7 33.2 46 -9.7 14.6 0
09:38 1023 30.21 852 25.16 0.9 33.6 45 -9.8 14.3 0
09:39 1023 30.21 852 25.16 1 33.8 45 -9.7 14.6 0
09:40 1023 30.21 852 25.16 1.1 33.9 46 -9.3 15.2 0
09:41 1023 30.21 852 25.16 1.1 34 47 -9.1 15.6 0
09:42 1023 30.21 852 25.16 1.1 34 46 -9.2 15.5 0
09:43 1023 30.21 852 25.16 1.1 34 45 -9.5 14.9 0
09:44 1023 30.21 852 25.16 1.1 33.9 45 -9.5 14.8 0
09:45 1023 30.21 852 25.16 1 33.8 46 -9.4 15.2 0
09:46 1023 30.21 852 25.16 1 33.8 46 -9.2 15.4 0
09:47 1023 30.21 852 25.16 1 33.9 45 -9.7 14.6 0
09:48 1023 30.21 852 25.16 1.1 34 45 -9.6 14.7 0
09:49 1023 30.21 852 25.16 1.1 34 46 -9.3 15.3 0
09:50 1023 30.21 852 25.16 1.2 34.1 45 -9.4 15.1 0
09:51 1022 30.18 852 25.16 1.3 34.3 43 -10 14 0
09:52 1022 30.18 852 25.16 1.4 34.5 43 -10 14.1 0
09:53 1022 30.18 852 25.16 1.5 34.7 44 -9.5 14.9 0
09:54 1022 30.18 852 25.16 1.6 34.8 43 -9.8 14.3 0
09:55 1022 30.18 852 25.16 1.6 34.9 47 -8.5 16.6 0
09:56 1022 30.18 852 25.16 1.5 34.7 47 -8.5 16.6 0
09:57 1022 30.18 852 25.16 1.5 34.6 46 -9 15.7 0
09:58 1022 30.18 852 25.16 1.3 34.4 49 -8.3 17 0
09:59 1022 30.18 852 25.16 1.3 34.4 45 -9.2 15.4 0
10:00 1022 30.18 851 25.13 1.3 34.3 47 -8.8 16.2 0
10:01 1022 30.18 851 25.13 1.2 34.2 48 -8.6 16.5 0
10:02 1022 30.18 851 25.13 1.2 34.2 46 -9.2 15.5 0
10:03 1022 30.18 851 25.13 1.2 34.2 45 -9.4 15.1 0
10:04 1022 30.18 851 25.13 1.3 34.3 45 -9.4 15.1 0
10:05 1022 30.18 851 25.13 1.5 34.6 48 -8.4 16.9 0
10:06 1022 30.18 851 25.13 1.7 35 43 -9.5 15 0
10:07 1022 30.18 851 25.13 1.7 35.1 44 -9.4 15 0
10:08 1022 30.18 851 25.13 1.7 35 46 -8.7 16.4 0
10:09 1022 30.18 851 25.13 1.6 34.8 48 -8.4 16.8 0
10:10 1022 30.18 851 25.13 1.4 34.6 49 -8.2 17.3 0
10:11 1022 30.18 851 25.13 1.3 34.4 44 -9.6 14.8 0
10:12 1022 30.18 851 25.13 1.3 34.4 44 -9.5 14.9 0
10:13 1022 30.18 851 25.13 1.3 34.4 45 -9.4 15.1 0
10:14 1022 30.18 851 25.13 1.2 34.2 45 -9.3 15.3 0
10:15 1022 30.18 851 25.13 1.1 34 46 -9.4 15.1 0
10:16 1022 30.18 851 25.13 0.9 33.6 46 -9.4 15 0
10:17 1022 30.18 851 25.13 0.7 33.3 51 -8.4 16.9 0
10:18 1022 30.18 851 25.13 0.5 32.9 56 -7.3 18.9 0
10:19 1022 30.18 851 25.13 0.4 32.7 57 -7.1 19.3 0
10:20 1022 30.18 851 25.13 0.3 32.5 58 -7 19.3 0
10:21 1022 30.18 851 25.13 0.2 32.3 55 -7.8 17.9 0
10:22 1022 30.18 851 25.13 0.2 32.3 51 -8.9 16 0
10:23 1022 30.18 851 25.13 0.2 32.4 54 -8.1 17.4 0
10:24 1022 30.18 851 25.13 0.2 32.3 56 -7.6 18.2 0
10:25 1022 30.18 851 25.13 0.1 32.2 57 -7.4 18.7 0
10:26 1022 30.18 851 25.13 0 32 58 -7.3 18.9 0
10:27 1022 30.18 851 25.13 -0.1 31.9 62 -6.6 20.1 0
10:28 1022 30.18 851 25.13 -0.2 31.7 58 -7.4 18.6 0
10:29 1022 30.18 851 25.13 -0.1 31.8 55 -8.1 17.4 0
10:30 1022 30.18 851 25.13 -0.1 31.8 54 -8.3 17.1 0
10:31 1022 30.18 851 25.13 -0 32 57 -7.7 18.2 0
10:32 1022 30.18 851 25.13 -0.1 31.8 53 -8.5 16.8 0
10:33 1022 30.18 851 25.13 -0.1 31.9 52 -8.7 16.3 0
10:34 1022 30.18 851 25.13 -0 32 50 -9.1 15.6 0
10:35 1022 30.18 851 25.13 -0 31.9 51 -8.9 16 0
10:36 1022 30.18 851 25.13 -0.1 31.9 52 -8.8 16.2 0
10:37 1022 30.18 851 25.13 -0.1 31.8 53 -8.5 16.6 0
10:38 1022 30.18 851 25.13 -0.1 31.7 53 -8.6 16.6 0
10:39 1022 30.18 851 25.13 -0.1 31.8 52 -8.9 16 0
10:40 1022 30.18 851 25.13 0 32.1 51 -8.9 16 0
10:41 1022 30.18 851 25.13 0.1 32.1 52 -8.6 16.5 0
10:42 1022 30.18 851 25.13 0.2 32.4 55 -7.8 17.9 0
10:43 1022 30.18 851 25.13 0.3 32.5 56 -7.5 18.6 0
10:44 1022 30.18 851 25.13 0.3 32.5 56 -7.6 18.3 0
10:45 1022 30.18 851 25.13 0.4 32.7 57 -7.3 18.9 0
10:46 1022 30.18 851 25.13 0.4 32.8 57 -7.1 19.2 0
10:47 1022 30.18 851 25.13 0.5 33 57 -7 19.3 0
10:48 1022 30.18 851 25.13 0.7 33.2 58 -6.6 20.2 0
10:49 1022 30.18 851 25.13 0.6 33.1 56 -7.3 18.9 0
10:50 1022 30.18 851 25.13 0.7 33.3 61 -5.9 21.3 0
10:51 1022 30.18 851 25.13 0.8 33.4 57 -6.9 19.6 0
10:52 1022 30.18 851 25.13 0.9 33.6 55 -7.2 19 0
10:53 1022 30.18 851 25.13 1 33.8 53 -7.5 18.6 0
10:54 1022 30.18 851 25.13 1.1 33.9 54 -7.3 18.8 0
10:55 1022 30.18 851 25.13 1.2 34.1 54 -7.1 19.3 0
10:56 1022 30.18 851 25.13 1.3 34.3 51 -7.7 18.2 0
10:57 1022 30.18 851 25.13 1.4 34.6 51 -7.6 18.3 0
10:58 1022 30.18 851 25.13 1.6 34.8 50 -7.7 18.1 0
10:59 1022 30.18 851 25.13 1.7 35 51 -7.4 18.6 0
11:00 1022 30.18 851 25.13 1.8 35.3 47 -8.2 17.2 0
11:01 1022 30.18 851 25.13 1.9 35.5 47 -8.2 17.3 0
11:02 1022 30.18 851 25.13 2.1 35.8 46 -8.3 17.1 0
11:03 1022 30.18 851 25.13 2.4 36.3 47 -7.9 17.9 0
11:04 1022 30.18 851 25.13 2.7 36.9 40 -9.6 14.7 0
11:05 1022 30.18 851 25.13 3 37.3 41 -9 15.7 0
11:06 1022 30.18 851 25.13 3.3 37.9 40 -9 15.8 0
11:07 1022 30.18 851 25.13 3.6 38.5 40 -8.9 16 0
11:08 1022 30.18 851 25.13 3.9 39.1 38 -9.1 15.6 0
11:09 1022 30.18 851 25.13 4.2 39.6 37 -9.1 15.6 0
11:10 1022 30.18 851 25.13 4.3 39.7 37 -9.3 15.3 0
11:11 1022 30.18 851 25.13 4.1 39.4 42 -7.7 18.2 0
11:12 1022 30.18 851 25.13 4.1 39.4 39 -8.7 16.4 0
11:13 1022 30.18 851 25.13 4.3 39.7 37 -9.3 15.3 0
11:14 1022 30.18 851 25.13 4.4 39.9 36 -9.3 15.2 0
11:15 1022 30.18 851 25.13 4.4 40 36 -9.2 15.4 0
11:16 1022 30.18 851 25.13 4.4 39.9 33 -10.4 13.3 0
11:17 1022 30.18 851 25.13 4.3 39.7 34 -10.2 13.7 0
11:18 1022 30.18 851 25.13 4.1 39.5 35 -9.9 14.1 0
11:19 1022 30.18 851 25.13 4 39.3 36 -9.6 14.7 0
11:20 1021 30.15 851 25.13 4.2 39.5 35 -9.8 14.3 0
11:21 1021 30.15 851 25.13 4.5 40 32 -10.8 12.6 0
11:22 1021 30.15 851 25.13 4.6 40.3 32 -10.5 13 0
11:23 1021 30.15 851 25.13 4.7 40.5 32 -10.8 12.6 0
11:24 1021 30.15 851 25.13 4.7 40.5 32 -10.7 12.8 0
11:25 1021 30.15 851 25.13 4.5 40.2 32 -11 12.2 0
11:26 1021 30.15 851 25.13 4.4 39.8 32 -11.1 12.1 0
11:27 1021 30.15 851 25.13 4.3 39.7 36 -9.6 14.6 0
11:28 1021 30.15 851 25.13 3.9 39 46 -6.6 20.2 0
11:29 1021 30.15 850 25.1 3.1 37.7 48 -6.9 19.6 0
11:30 1021 30.15 850 25.1 2.5 36.5 53 -6.2 20.9 0
11:31 1021 30.15 850 25.1 1.9 35.4 56 -6 21.2 0
11:32 1021 30.15 851 25.13 1.5 34.6 56 -6.4 20.6 0
11:33 1021 30.15 851 25.13 1.1 34 55 -6.8 19.7 0
11:34 1021 30.15 851 25.13 0.9 33.5 55 -7.2 19.1 0
11:35 1021 30.15 851 25.13 0.7 33.2 56 -7.2 19.1 0
11:36 1021 30.15 851 25.13 0.6 33 57 -7.1 19.2 0
11:37 1021 30.15 851 25.13 0.5 32.9 57 -7 19.4 0
11:38 1021 30.15 851 25.13 0.4 32.8 57 -7.1 19.2 0
11:39 1021 30.15 851 25.13 0.4 32.7 59 -6.6 20.1 0
11:40 1021 30.15 851 25.13 0.3 32.5 60 -6.5 20.3 0
11:41 1021 30.15 851 25.13 0.1 32.2 59 -7 19.4 0
11:42 1021 30.15 851 25.13 0 32 59 -7 19.5 0
11:43 1021 30.15 851 25.13 -0 31.9 57 -7.6 18.4 0
11:44 1021 30.15 851 25.13 -0.1 31.9 58 -7.3 18.9 0
11:45 1021 30.15 851 25.13 -0 32 60 -6.9 19.7 0
11:46 1021 30.15 851 25.13 -0 32 59 -7.1 19.2 0
11:47 1021 30.15 851 25.13 -0 32 61 -6.6 20.2 0
11:48 1021 30.15 851 25.13 -0.1 31.8 62 -6.6 20.1 0
11:49 1021 30.15 851 25.13 -0.2 31.6 61 -6.9 19.5 0
11:50 1021 30.15 851 25.13 -0.3 31.5 62 -6.7 20 0
11:51 1021 30.15 851 25.13 -0.3 31.5 64 -6.4 20.5 0
11:52 1022 30.18 851 25.13 -0.4 31.3 65 -6.1 21 0
11:53 1022 30.18 851 25.13 -0.4 31.2 64 -6.4 20.5 0
11:54 1022 30.18 851 25.13 -0.5 31.1 63 -6.7 20 0
11:55 1022 30.18 851 25.13 -0.5 31.1 65 -6.4 20.6 0
11:56 1022 30.18 851 25.13 -0.6 30.9 65 -6.4 20.5 0
11:57 1021 30.15 851 25.13 -0.6 30.9 64 -6.6 20.1 0
11:58 1021 30.15 851 25.13 -0.6 30.9 65 -6.3 20.7 0
11:59 1021 30.15 851 25.13 -0.6 31 65 -6.4 20.5 0
12:00 1022 30.18 851 25.13 -0.6 31 67 -5.9 21.3 0
12:01 1022 30.18 851 25.13 -0.6 30.9 68 -5.9 21.5 0
12:02 1022 30.18 851 25.13 -0.6 30.9 68 -5.9 21.4 0
12:03 1022 30.18 851 25.13 -0.6 31 67 -5.9 21.4 0
12:04 1022 30.18 851 25.13 -0.6 30.9 68 -5.8 21.5 0
12:05 1022 30.18 851 25.13 -0.6 30.9 67 -5.9 21.4 0
12:06 1022 30.18 851 25.13 -0.6 30.9 69 -5.7 21.8 0
12:07 1022 30.18 851 25.13 -0.6 31 70 -5.4 22.3 0
12:08 1022 30.18 851 25.13 -0.6 30.9 68 -5.7 21.7 0
12:09 1022 30.18 851 25.13 -0.6 31 67 -5.9 21.4 0
12:10 1022 30.18 851 25.13 -0.5 31 67 -5.9 21.4 0
12:11 1022 30.18 851 25.13 -0.5 31 67 -5.9 21.4 0
12:12 1022 30.18 851 25.13 -0.5 31.1 67 -5.9 21.4 0
12:13 1022 30.18 851 25.13 -0.4 31.2 68 -5.7 21.7 0
12:14 1022 30.18 851 25.13 -0.5 31.1 67 -5.9 21.3 0
12:15 1022 30.18 851 25.13 -0.5 31.1 68 -5.7 21.7 0
12:16 1022 30.18 851 25.13 -0.5 31 70 -5.4 22.3 0
12:17 1022 30.18 851 25.13 -0.6 30.9 71 -5.3 22.5 0
12:18 1022 30.18 851 25.13 -0.6 31 71 -5.2 22.6 0
12:19 1022 30.18 851 25.13 -0.6 30.9 72 -5.1 22.8 0
12:20 1022 30.18 851 25.13 -0.7 30.7 72 -5.2 22.6 0
12:21 1022 30.18 851 25.13 -0.8 30.6 71 -5.3 22.4 0
12:22 1022 30.18 851 25.13 -0.7 30.7 70 -5.5 22.2 0
12:23 1022 30.18 851 25.13 -0.7 30.7 70 -5.5 22.1 0
12:24 1022 30.18 851 25.13 -0.7 30.8 70 -5.5 22 0
12:25 1022 30.18 851 25.13 -0.6 30.9 70 -5.5 22.1 0
12:26 1022 30.18 851 25.13 -0.5 31.1 69 -5.5 22.1 0
12:27 1022 30.18 851 25.13 -0.4 31.3 71 -5 23 0
12:28 1022 30.18 851 25.13 -0.3 31.4 69 -5.3 22.5 0
12:29 1022 30.18 851 25.13 -0.4 31.3 68 -5.5 22.1 0
12:30 1022 30.18 851 25.13 -0.4 31.4 70 -5.2 22.6 0
12:31 1022 30.18 851 25.13 -0.4 31.3 72 -4.9 23.2 0
12:32 1022 30.18 851 25.13 -0.4 31.3 70 -5.2 22.6 0
12:33 1022 30.18 851 25.13 -0.4 31.3 72 -4.9 23.2 0
12:34 1022 30.18 851 25.13 -0.4 31.2 72 -4.8 23.3 0
12:35 1022 30.18 851 25.13 -0.4 31.2 73 -4.7 23.5 0
12:36 1022 30.18 851 25.13 -0.4 31.2 73 -4.8 23.4 0
12:37 1022 30.18 851 25.13 -0.3 31.4 73 -4.7 23.6 0
12:38 1022 30.18 851 25.13 -0.3 31.4 72 -4.8 23.3 0
12:39 1022 30.18 851 25.13 -0.3 31.4 72 -4.8 23.4 0
12:40 1022 30.18 851 25.13 -0.3 31.4 72 -4.8 23.3 0
12:41 1022 30.18 851 25.13 -0.3 31.4 71 -4.9 23.2 0
12:42 1022 30.18 851 25.13 -0.4 31.3 71 -4.9 23.1 0
12:43 1022 30.18 851 25.13 -0.5 31.2 73 -4.7 23.6 0
12:44 1022 30.18 851 25.13 -0.5 31.2 73 -4.6 23.6 0
12:45 1022 30.18 851 25.13 -0.5 31.1 74 -4.6 23.7 0
12:46 1022 30.18 851 25.13 -0.5 31.1 74 -4.6 23.7 0
12:47 1022 30.18 851 25.13 -0.5 31.2 74 -4.6 23.7 0
12:48 1022 30.18 851 25.13 -0.5 31.1 72 -5 23.1 0
12:49 1022 30.18 851 25.13 -0.4 31.3 71 -5.1 22.9 0
12:50 1022 30.18 851 25.13 -0.3 31.4 71 -5 22.9 0
12:51 1021 30.15 851 25.13 -0.4 31.4 71 -5.1 22.9 0
12:52 1021 30.15 851 25.13 -0.3 31.5 72 -4.8 23.3 0
12:53 1022 30.18 851 25.13 -0.3 31.5 71 -4.9 23.3 0
12:54 1021 30.15 851 25.13 -0.2 31.6 71 -4.8 23.3 0
12:55 1021 30.15 851 25.13 -0.3 31.5 71 -5 23.1 0
12:56 1021 30.15 851 25.13 -0.2 31.6 71 -4.8 23.4 0
12:57 1021 30.15 851 25.13 -0.2 31.7 72 -4.7 23.6 0
12:58 1021 30.15 851 25.13 -0.1 31.8 70 -4.9 23.2 0
12:59 1021 30.15 851 25.13 -0.1 31.8 71 -4.8 23.3 0
13:00 1021 30.15 851 25.13 -0.1 31.9 71 -4.8 23.4 0
13:01 1021 30.15 851 25.13 -0 31.9 70 -4.9 23.2 0
13:02 1021 30.15 851 25.13 0 32 70 -4.9 23.2 0
13:03 1021 30.15 851 25.13 0.1 32.1 70 -4.8 23.4 0
13:04 1021 30.15 851 25.13 0.1 32.2 69 -4.8 23.3 0
13:05 1021 30.15 851 25.13 0.1 32.2 68 -5.1 22.7 0
13:06 1021 30.15 851 25.13 0.2 32.3 67 -5.2 22.6 0
13:07 1021 30.15 851 25.13 0.2 32.4 66 -5.4 22.3 0
13:08 1022 30.18 851 25.13 0.3 32.5 66 -5.3 22.5 0
13:09 1022 30.18 851 25.13 0.4 32.6 67 -5.1 22.9 0
13:10 1021 30.15 851 25.13 0.4 32.8 67 -4.9 23.1 0
13:11 1022 30.18 851 25.13 0.5 33 67 -5 23 0
13:12 1022 30.18 851 25.13 0.7 33.3 66 -4.9 23.2 0
13:13 1022 30.18 851 25.13 0.9 33.6 65 -5 23 0
13:14 1022 30.18 851 25.13 0.9 33.5 64 -5.1 22.7 0
13:15 1022 30.18 851 25.13 0.9 33.6 66 -4.8 23.4 0
13:16 1021 30.15 851 25.13 0.9 33.6 64 -5.3 22.5 0
13:17 1021 30.15 851 25.13 0.9 33.6 65 -4.9 23.1 0
13:18 1021 30.15 851 25.13 0.9 33.5 65 -4.9 23.1 0
13:19 1022 30.18 851 25.13 0.8 33.4 66 -4.9 23.3 0
13:20 1022 30.18 851 25.13 0.7 33.3 66 -4.9 23.1 0
13:21 1022 30.18 851 25.13 0.7 33.3 66 -5 23 0
13:22 1021 30.15 851 25.13 0.7 33.3 65 -5 22.9 0
13:23 1021 30.15 851 25.13 0.8 33.4 65 -5.1 22.8 0
13:24 1021 30.15 851 25.13 0.9 33.6 64 -5.1 22.7 0
13:25 1021 30.15 851 25.13 0.9 33.6 64 -5.2 22.6 0
13:26 1021 30.15 851 25.13 0.8 33.5 62 -5.7 21.7 0
13:27 1022 30.18 851 25.13 0.8 33.4 64 -5.2 22.7 0
13:28 1022 30.18 851 25.13 0.6 33.1 66 -4.9 23.1 0
13:29 1022 30.18 851 25.13 0.5 32.9 65 -5.2 22.6 0
13:30 1022 30.18 851 25.13 0.4 32.8 66 -5.1 22.8 0
13:31 1022 30.18 851 25.13 0.5 32.8 65 -5.4 22.3 0
13:32 1022 30.18 851 25.13 0.5 32.9 67 -5 23 0
13:33 1021 30.15 851 25.13 0.5 32.9 68 -4.7 23.5 0
13:34 1021 30.15 851 25.13 0.6 33.1 67 -4.8 23.3 0
13:35 1021 30.15 851 25.13 0.6 33.2 66 -5.1 22.9 0
13:36 1021 30.15 851 25.13 0.5 33 67 -4.8 23.3 0
13:37 1021 30.15 851 25.13 0.5 32.9 67 -4.9 23.2 0
13:38 1021 30.15 851 25.13 0.6 33 66 -5 23 0
13:39 1021 30.15 851 25.13 0.6 33.1 65 -5.3 22.5 0
13:40 1021 30.15 851 25.13 0.6 33.1 65 -5.3 22.4 0
13:41 1021 30.15 851 25.13 0.7 33.2 66 -4.9 23.2 0
13:42 1021 30.15 851 25.13 0.7 33.3 64 -5.3 22.5 0
13:43 1021 30.15 851 25.13 0.7 33.3 63 -5.5 22.1 0
13:44 1021 30.15 850 25.1 0.7 33.3 65 -5.2 22.7 0
13:45 1021 30.15 850 25.1 0.8 33.4 65 -5.1 22.8 0
13:46 1021 30.15 850 25.1 0.7 33.3 66 -4.9 23.1 0
13:47 1021 30.15 850 25.1 0.6 33.2 65 -5.2 22.7 0
13:48 1021 30.15 850 25.1 0.6 33.2 65 -5.2 22.7 0
13:49 1021 30.15 851 25.13 0.7 33.3 65 -5.1 22.8 0
13:50 1021 30.15 851 25.13 0.8 33.4 65 -5 23.1 0
13:51 1021 30.15 851 25.13 0.8 33.4 63 -5.5 22.1 0
13:52 1021 30.15 851 25.13 0.7 33.2 65 -5.1 22.8 0
13:53 1021 30.15 851 25.13 0.5 33 67 -5 23.1 0
13:54 1021 30.15 851 25.13 0.4 32.8 68 -4.8 23.3 0
13:55 1021 30.15 851 25.13 0.3 32.6 68 -4.9 23.2 0
13:56 1021 30.15 851 25.13 0.2 32.4 69 -4.8 23.3 0
13:57 1021 30.15 851 25.13 0.1 32.2 69 -4.9 23.2 0
13:58 1021 30.15 851 25.13 -0 32 69 -5 23 0
13:59 1021 30.15 851 25.13 0 32 69 -5.1 22.9 0
14:00 1021 30.15 851 25.13 -0.1 31.9 69 -5 23 0
14:01 1021 30.15 851 25.13 -0.1 31.9 70 -4.9 23.2 0
14:02 1021 30.15 851 25.13 -0.1 31.8 71 -4.8 23.3 0
14:03 1021 30.15 851 25.13 -0.2 31.7 71 -4.9 23.2 0
14:04 1021 30.15 851 25.13 -0.1 31.8 70 -4.9 23.2 0
14:05 1021 30.15 850 25.1 -0.1 31.8 70 -5 23.1 0
14:06 1021 30.15 850 25.1 -0 32 70 -4.9 23.2 0
14:07 1021 30.15 850 25.1 0 32.1 68 -5.2 22.6 0
14:08 1021 30.15 850 25.1 0.2 32.3 65 -5.6 21.9 0
14:09 1021 30.15 850 25.1 0.4 32.7 65 -5.5 22.1 0
14:10 1021 30.15 850 25.1 0.5 32.9 66 -5.1 22.9 0
14:11 1021 30.15 850 25.1 0.5 32.9 65 -5.2 22.6 0
14:12 1021 30.15 850 25.1 0.6 33.1 65 -5.3 22.5 0
14:13 1021 30.15 850 25.1 0.6 33.1 62 -5.7 21.7 0
14:14 1021 30.15 850 25.1 0.7 33.3 63 -5.5 22.1 0
14:15 1021 30.15 850 25.1 0.7 33.3 63 -5.5 22.1 0
14:16 1021 30.15 850 25.1 0.8 33.4 63 -5.4 22.2 0
14:17 1021 30.15 850 25.1 0.8 33.5 63 -5.4 22.4 0
14:18 1021 30.15 850 25.1 0.9 33.5 61 -5.7 21.7 0
14:19 1021 30.15 850 25.1 0.9 33.7 60 -6 21.2 0
14:20 1021 30.15 850 25.1 1.1 33.9 59 -6.2 20.9 0
14:21 1021 30.15 850 25.1 1.1 34.1 59 -6.1 21.1 0
14:22 1021 30.15 850 25.1 1.3 34.3 57 -6.3 20.7 0
14:23 1021 30.15 850 25.1 1.4 34.5 57 -6.3 20.6 0
14:24 1021 30.15 850 25.1 1.4 34.5 56 -6.4 20.5 0
14:25 1021 30.15 850 25.1 1.6 34.8 57 -6.2 20.9 0
14:26 1021 30.15 850 25.1 1.6 34.9 53 -6.8 19.7 0
14:27 1021 30.15 850 25.1 1.8 35.2 52 -7.1 19.2 0
14:28 1021 30.15 850 25.1 2 35.6 52 -7 19.5 0
14:29 1021 30.15 850 25.1 2.2 35.9 54 -6.2 20.9 0
14:30 1021 30.15 850 25.1 2.2 36 54 -6.2 20.8 0
14:31 1021 30.15 850 25.1 2.2 36 54 -6.1 21 0
14:32 1021 30.15 850 25.1 2.3 36.1 56 -5.6 22 0
14:33 1021 30.15 850 25.1 2.3 36.2 57 -5.3 22.4 0
14:34 1021 30.15 850 25.1 2.4 36.3 57 -5.3 22.4 0
14:35 1021 30.15 850 25.1 2.5 36.4 60 -4.6 23.8 0
14:36 1021 30.15 850 25.1 2.6 36.6 58 -4.9 23.2 0
14:37 1021 30.15 850 25.1 2.8 37 57 -5 23 0
14:38 1021 30.15 850 25.1 2.9 37.2 60 -4.2 24.5 0
14:39 1021 30.15 850 25.1 2.9 37.2 59 -4.4 24.1 0
14:40 1021 30.15 850 25.1 2.9 37.3 57 -4.8 23.3 0
14:41 1021 30.15 850 25.1 2.9 37.3 59 -4.3 24.3 0
14:42 1021 30.15 850 25.1 2.9 37.2 57 -4.7 23.5 0
14:43 1021 30.15 850 25.1 2.9 37.3 59 -4.3 24.3 0
14:44 1021 30.15 850 25.1 2.9 37.3 59 -4.4 24.1 0
14:45 1021 30.15 850 25.1 3 37.4 59 -4.2 24.4 0
14:46 1021 30.15 850 25.1 3 37.4 57 -4.6 23.7 0
14:47 1021 30.15 850 25.1 3 37.5 58 -4.5 23.9 0
14:48 1021 30.15 850 25.1 3.1 37.6 58 -4.3 24.3 0
14:49 1021 30.15 850 25.1 3.1 37.6 56 -4.9 23.2 0
14:50 1021 30.15 850 25.1 3.2 37.7 57 -4.5 23.8 0
14:51 1021 30.15 850 25.1 3.2 37.7 56 -4.7 23.6 0
14:52 1021 30.15 850 25.1 3.2 37.7 59 -4.2 24.5 0
14:53 1021 30.15 850 25.1 3.1 37.6 56 -4.8 23.4 0
14:54 1021 30.15 850 25.1 3.1 37.7 57 -4.6 23.7 0
14:55 1021 30.15 850 25.1 3.1 37.6 55 -5 23.1 0
14:56 1021 30.15 850 25.1 3.2 37.7 56 -4.7 23.5 0
14:57 1021 30.15 850 25.1 3.2 37.7 57 -4.6 23.7 0
14:58 1021 30.15 850 25.1 3.1 37.7 58 -4.3 24.2 0
14:59 1021 30.15 850 25.1 3.1 37.5 62 -3.6 25.5 0
15:00 1021 30.15 850 25.1 2.8 37.1 63 -3.5 25.7 0
15:01 1021 30.15 850 25.1 2.7 36.8 62 -3.8 25.2 0
15:02 1021 30.15 850 25.1 2.6 36.7 64 -3.4 25.8 0
15:03 1021 30.15 850 25.1 2.5 36.5 65 -3.3 26 0
15:04 1021 30.15 850 25.1 2.4 36.3 65 -3.4 25.8 0
15:05 1021 30.15 850 25.1 2.3 36.2 65 -3.5 25.7 0
15:06 1021 30.15 850 25.1 2.3 36.1 65 -3.5 25.6 0
15:07 1021 30.15 850 25.1 2.3 36.1 68 -3 26.6 0
15:08 1021 30.15 850 25.1 2.3 36.1 66 -3.4 26 0
15:09 1021 30.15 850 25.1 2.3 36.1 65 -3.6 25.5 0
15:10 1021 30.15 850 25.1 2.3 36.1 67 -3.3 26 0
15:11 1021 30.15 850 25.1 2.2 36 67 -3.4 25.9 0
15:12 1021 30.15 850 25.1 2.2 35.9 66 -3.5 25.8 0
15:13 1021 30.15 850 25.1 2.2 36 65 -3.6 25.6 0
15:14 1020 30.12 850 25.1 2.2 36 65 -3.6 25.4 0
15:15 1020 30.12 850 25.1 2.3 36.1 65 -3.6 25.5 0
15:16 1020 30.12 850 25.1 2.2 36 65 -3.6 25.5 0
15:17 1020 30.12 849 25.07 2.2 36 66 -3.4 25.9 0
15:18 1020 30.12 849 25.07 2.2 35.9 66 -3.6 25.5 0
15:19 1020 30.12 849 25.07 2.1 35.8 67 -3.3 26.1 0
15:20 1020 30.12 849 25.07 2.1 35.7 69 -3 26.6 0
15:21 1020 30.12 849 25.07 2.1 35.7 68 -3.2 26.2 0
15:22 1020 30.12 849 25.07 2.1 35.8 69 -3 26.6 0
15:23 1020 30.12 849 25.07 2.1 35.8 67 -3.4 25.8 0
15:24 1020 30.12 849 25.07 2.1 35.8 66 -3.5 25.7 0
15:25 1020 30.12 849 25.07 2 35.7 68 -3.3 26 0
15:26 1020 30.12 849 25.07 2 35.6 68 -3.3 26 0
15:27 1020 30.12 849 25.07 2 35.7 69 -3.1 26.3 0
15:28 1020 30.12 849 25.07 1.9 35.5 68 -3.4 25.9 0
15:29 1020 30.12 849 25.07 1.9 35.4 68 -3.3 26 0
15:30 1020 30.12 849 25.07 2 35.6 68 -3.3 26.1 0
15:31 1020 30.12 849 25.07 2.1 35.8 68 -3.1 26.4 0
15:32 1020 30.12 849 25.07 2.2 36 68 -3.1 26.4 0
15:33 1020 30.12 849 25.07 2.3 36.1 67 -3.2 26.2 0
15:34 1020 30.12 849 25.07 2.4 36.3 67 -3.1 26.4 0
15:35 1020 30.12 849 25.07 2.5 36.5 66 -3.3 26.1 0
15:36 1020 30.12 849 25.07 2.6 36.7 65 -3.4 26 0
15:37 1020 30.12 849 25.07 2.7 36.8 66 -3 26.6 0
15:38 1020 30.12 849 25.07 2.7 36.9 65 -3.1 26.4 0
15:39 1020 30.12 849 25.07 2.6 36.7 65 -3.2 26.2 0
15:40 1020 30.12 849 25.07 2.5 36.5 66 -3.2 26.2 0
15:41 1020 30.12 849 25.07 2.4 36.3 66 -3.3 26.1 0
15:42 1020 30.12 849 25.07 2.4 36.3 65 -3.4 25.8 0
15:43 1020 30.12 849 25.07 2.4 36.3 67 -3.1 26.4 0
15:44 1020 30.12 849 25.07 2.4 36.3 64 -3.8 25.2 0
15:45 1020 30.12 849 25.07 2.4 36.4 65 -3.4 25.8 0
15:46 1020 30.12 849 25.07 2.4 36.3 64 -3.6 25.5 0
15:47 1020 30.12 849 25.07 2.5 36.4 64 -3.6 25.4 0
15:48 1020 30.12 849 25.07 2.5 36.5 62 -4 24.7 0
15:49 1020 30.12 849 25.07 2.5 36.5 65 -3.5 25.8 0
15:50 1020 30.12 849 25.07 2.5 36.6 62 -4 24.9 0
15:51 1020 30.12 849 25.07 2.7 36.8 62 -4 24.8 0
15:52 1020 30.12 849 25.07 2.7 36.9 63 -3.5 25.7 0
15:53 1020 30.12 849 25.07 2.7 36.9 63 -3.7 25.4 0
15:54 1020 30.12 849 25.07 2.8 37 60 -4.2 24.4 0
15:55 1020 30.12 849 25.07 2.8 37.1 61 -4 24.9 0
15:56 1020 30.12 849 25.07 2.8 37.1 62 -3.7 25.4 0
15:57 1020 30.12 849 25.07 2.7 36.9 61 -4 24.9 0
15:58 1020 30.12 849 25.07 2.7 36.9 62 -3.8 25.1 0
15:59 1020 30.12 849 25.07 2.7 36.8 61 -4.2 24.4 0
16:00 1020 30.12 849 25.07 2.7 36.8 62 -3.9 24.9 0
16:01 1020 30.12 849 25.07 2.7 36.9 60 -4.2 24.5 0
16:02 1020 30.12 849 25.07 2.9 37.2 60 -4.1 24.6 0
16:03 1020 30.12 849 25.07 3.1 37.5 57 -4.6 23.7 0
16:04 1020 30.12 849 25.07 3.2 37.8 57 -4.5 23.9 0
16:05 1020 30.12 849 25.07 3.3 37.9 58 -4.3 24.3 0
16:06 1020 30.12 849 25.07 3.2 37.8 58 -4.2 24.5 0
16:07 1020 30.12 849 25.07 3.2 37.7 57 -4.6 23.7 0
16:08 1019 30.09 849 25.07 3.2 37.8 57 -4.5 23.9 0
16:09 1020 30.12 849 25.07 3.2 37.8 56 -4.7 23.5 0
16:10 1019 30.09 849 25.07 3.2 37.7 57 -4.6 23.7 0
16:11 1019 30.09 849 25.07 3.1 37.6 58 -4.5 24 0
16:12 1019 30.09 849 25.07 3.1 37.6 58 -4.3 24.2 0
16:13 1019 30.09 849 25.07 3.1 37.6 57 -4.5 23.9 0
16:14 1020 30.12 849 25.07 3.2 37.7 56 -4.8 23.3 0
16:15 1020 30.12 849 25.07 3.4 38.1 56 -4.7 23.6 0
16:16 1020 30.12 849 25.07 3.5 38.3 54 -5 23.1 0
16:17 1020 30.12 849 25.07 3.6 38.6 54 -4.8 23.3 0
16:18 1020 30.12 849 25.07 3.7 38.7 55 -4.4 24.2 0
16:19 1020 30.12 849 25.07 3.8 38.9 52 -5.1 22.9 0
16:20 1019 30.09 849 25.07 3.9 39 54 -4.7 23.6 0
16:21 1019 30.09 849 25.07 3.8 38.8 56 -4.2 24.5 0
16:22 1019 30.09 849 25.07 3.6 38.6 56 -4.4 24.1 0
16:23 1019 30.09 849 25.07 3.5 38.4 56 -4.3 24.2 0
16:24 1019 30.09 849 25.07 3.6 38.4 56 -4.5 23.9 0
16:25 1019 30.09 849 25.07 3.5 38.3 56 -4.3 24.2 0
16:26 1019 30.09 849 25.07 3.5 38.3 54 -4.9 23.2 0
16:27 1019 30.09 849 25.07 3.6 38.5 56 -4.4 24 0
16:28 1019 30.09 849 25.07 3.6 38.5 55 -4.7 23.6 0
16:29 1019 30.09 849 25.07 3.6 38.5 58 -4 24.8 0
16:30 1019 30.09 849 25.07 3.6 38.4 58 -3.9 24.9 0
16:31 1019 30.09 849 25.07 3.5 38.3 54 -4.9 23.2 0
16:32 1019 30.09 849 25.07 3.7 38.6 54 -4.7 23.5 0
16:33 1019 30.09 849 25.07 3.7 38.7 55 -4.4 24.1 0
16:34 1019 30.09 849 25.07 3.7 38.7 56 -4.3 24.2 0
16:35 1019 30.09 849 25.07 3.7 38.7 56 -4.3 24.3 0
16:36 1019 30.09 849 25.07 3.7 38.7 54 -4.7 23.6 0
16:37 1019 30.09 849 25.07 3.9 38.9 54 -4.6 23.8 0
16:38 1019 30.09 849 25.07 3.9 39 55 -4.4 24.2 0
16:39 1019 30.09 849 25.07 3.8 38.9 56 -4.2 24.4 0
16:40 1019 30.09 849 25.07 3.8 38.8 57 -3.9 24.9 0
16:41 1019 30.09 849 25.07 3.7 38.7 56 -4.2 24.4 0
16:42 1019 30.09 849 25.07 3.7 38.7 56 -4.2 24.4 0
16:43 1019 30.09 849 25.07 3.7 38.6 56 -4.3 24.2 0
16:44 1019 30.09 849 25.07 3.6 38.6 54 -4.8 23.4 0
16:45 1019 30.09 849 25.07 3.6 38.6 55 -4.6 23.7 0
16:46 1019 30.09 849 25.07 3.6 38.5 55 -4.6 23.7 0
16:47 1019 30.09 849 25.07 3.5 38.4 54 -4.8 23.3 0
16:48 1019 30.09 849 25.07 3.5 38.4 55 -4.6 23.7 0
16:49 1019 30.09 849 25.07 3.5 38.3 56 -4.4 24 0
16:50 1019 30.09 849 25.07 3.5 38.2 55 -4.7 23.5 0
16:51 1019 30.09 849 25.07 3.4 38.2 56 -4.5 23.9 0
16:52 1019 30.09 849 25.07 3.5 38.3 54 -4.9 23.1 0
16:53 1019 30.09 849 25.07 3.5 38.3 56 -4.6 23.8 0
16:54 1019 30.09 849 25.07 3.4 38.2 57 -4.3 24.3 0
16:55 1019 30.09 849 25.07 3.4 38.1 56 -4.7 23.6 0
16:56 1019 30.09 849 25.07 3.3 38 56 -4.7 23.5 0
16:57 1019 30.09 849 25.07 3.4 38 54 -5 22.9 0
16:58 1019 30.09 849 25.07 3.4 38.2 55 -4.7 23.5 0
16:59 1019 30.09 849 25.07 3.4 38.1 57 -4.3 24.3 0
17:00 1019 30.09 849 25.07 3.3 38 57 -4.4 24.1 0
17:01 1019 30.09 849 25.07 3.3 38 57 -4.3 24.2 0
17:02 1019 30.09 849 25.07 3.3 37.9 57 -4.4 24.1 0
17:03 1019 30.09 849 25.07 3.3 37.9 57 -4.5 23.9 0
17:04 1019 30.09 849 25.07 3.3 37.9 56 -4.5 23.8 0
17:05 1019 30.09 849 25.07 3.3 37.9 57 -4.5 23.9 0
17:06 1019 30.09 849 25.07 3.3 38 57 -4.4 24.1 0
17:07 1019 30.09 849 25.07 3.3 37.9 57 -4.3 24.2 0
17:08 1019 30.09 849 25.07 3.3 37.9 56 -4.6 23.7 0
17:09 1019 30.09 849 25.07 3.3 37.9 56 -4.6 23.7 0
17:10 1019 30.09 849 25.07 3.3 37.9 58 -4.3 24.3 0
17:11 1019 30.09 849 25.07 3.3 37.9 56 -4.6 23.7 0
17:12 1019 30.09 849 25.07 3.3 37.9 58 -4.2 24.5 0
17:13 1019 30.09 849 25.07 3.2 37.7 57 -4.4 24 0
17:14 1019 30.09 849 25.07 3.1 37.6 60 -3.9 24.9 0
17:15 1019 30.09 849 25.07 3 37.4 60 -4.1 24.7 0
17:16 1019 30.09 849 25.07 3 37.4 59 -4.2 24.5 0
17:17 1019 30.09 849 25.07 3 37.3 59 -4.2 24.5 0
17:18 1019 30.09 849 25.07 2.9 37.2 60 -4.2 24.4 0
17:19 1019 30.09 849 25.07 2.9 37.2 61 -3.9 24.9 0
17:20 1019 30.09 849 25.07 2.8 37.1 56 -5 23 0
17:21 1019 30.09 849 25.07 3 37.4 58 -4.5 23.9 0
17:22 1019 30.09 849 25.07 3.2 37.7 53 -5.4 22.2 0
17:23 1019 30.09 849 25.07 3.4 38.1 55 -4.8 23.3 0
17:24 1019 30.09 849 25.07 3.4 38.1 55 -4.9 23.2 0
17:25 1019 30.09 849 25.07 3.4 38.1 56 -4.5 23.8 0
17:26 1019 30.09 849 25.07 3.3 37.9 57 -4.5 23.9 0
17:27 1019 30.09 849 25.07 3.2 37.7 56 -4.7 23.5 0
17:28 1019 30.09 849 25.07 3.2 37.8 53 -5.4 22.3 0
17:29 1019 30.09 849 25.07 3.3 37.9 54 -5.1 22.9 0
17:30 1019 30.09 849 25.07 3.3 37.9 55 -5 23 0
17:31 1020 30.12 849 25.07 3.3 38 53 -5.4 22.3 0
17:32 1019 30.09 849 25.07 3.4 38.1 54 -5.1 22.8 0
17:33 1019 30.09 849 25.07 3.4 38.1 54 -4.9 23.1 0
17:34 1020 30.12 849 25.07 3.4 38.1 53 -5.3 22.4 0
17:35 1019 30.09 849 25.07 3.4 38.2 53 -5.2 22.7 0
17:36 1019 30.09 849 25.07 3.5 38.3 54 -4.9 23.2 0
17:37 1019 30.09 849 25.07 3.5 38.3 55 -4.8 23.4 0
17:38 1019 30.09 849 25.07 3.5 38.3 55 -4.8 23.4 0
17:39 1019 30.09 849 25.07 3.4 38.1 55 -4.9 23.2 0
17:40 1019 30.09 849 25.07 3.3 38 53 -5.3 22.5 0
17:41 1019 30.09 849 25.07 3.4 38.1 54 -5.1 22.8 0
17:42 1019 30.09 849 25.07 3.3 37.9 55 -5 23 0
17:43 1020 30.12 849 25.07 3.3 38 54 -5.1 22.9 0
17:44 1019 30.09 849 25.07 3.4 38 52 -5.5 22 0
17:45 1019 30.09 849 25.07 3.4 38.2 55 -4.7 23.5 0
17:46 1019 30.09 849 25.07 3.3 38 55 -4.9 23.3 0
17:47 1019 30.09 849 25.07 3.2 37.8 58 -4.2 24.4 0
17:48 1019 30.09 849 25.07 3.2 37.7 57 -4.5 24 0
17:49 1019 30.09 849 25.07 3.1 37.5 57 -4.6 23.7 0
17:50 1019 30.09 849 25.07 3.1 37.6 57 -4.6 23.8 0
17:51 1019 30.09 849 25.07 3 37.4 58 -4.4 24.1 0
17:52 1020 30.12 849 25.07 3 37.4 58 -4.6 23.8 0
17:53 1020 30.12 849 25.07 2.9 37.3 60 -4.1 24.7 0
17:54 1020 30.12 849 25.07 2.8 37.1 60 -4.3 24.3 0
17:55 1020 30.12 849 25.07 2.8 37 59 -4.4 24.1 0
17:56 1020 30.12 849 25.07 2.8 37 59 -4.3 24.2 0
17:57 1020 30.12 849 25.07 2.8 37 59 -4.4 24 0
17:58 1020 30.12 849 25.07 2.8 37 59 -4.3 24.2 0
17:59 1020 30.12 849 25.07 2.7 36.9 60 -4.3 24.3 0
18:00 1019 30.09 849 25.07 2.7 36.9 60 -4.2 24.4 0
18:01 1019 30.09 849 25.07 2.7 36.9 59 -4.4 24 0
18:02 1019 30.09 849 25.07 2.7 36.9 59 -4.4 24 0
18:03 1019 30.09 849 25.07 2.7 36.9 60 -4.2 24.5 0
18:04 1019 30.09 849 25.07 2.6 36.8 61 -4.1 24.6 0
18:05 1020 30.12 849 25.07 2.6 36.8 59 -4.5 23.8 0
18:06 1020 30.12 849 25.07 2.8 37 58 -4.7 23.5 0
18:07 1020 30.12 849 25.07 2.9 37.2 57 -4.9 23.2 0
18:08 1020 30.12 849 25.07 3 37.4 57 -4.7 23.5 0
18:09 1020 30.12 849 25.07 3.1 37.6 56 -4.8 23.3 0
18:10 1020 30.12 849 25.07 3.1 37.6 57 -4.5 23.9 0
18:11 1020 30.12 849 25.07 3 37.4 57 -4.6 23.8 0
18:12 1019 30.09 849 25.07 3 37.4 57 -4.7 23.5 0
18:13 1020 30.12 849 25.07 3 37.4 54 -5.3 22.5 0
18:14 1020 30.12 849 25.07 3.2 37.7 54 -5.2 22.7 0
18:15 1020 30.12 849 25.07 3.2 37.8 55 -5.1 22.9 0
18:16 1020 30.12 849 25.07 3.2 37.8 54 -5.2 22.7 0
18:17 1020 30.12 849 25.07 3.2 37.8 52 -5.8 21.6 0
18:18 1020 30.12 849 25.07 3.3 38 51 -5.8 21.6 0
18:19 1020 30.12 849 25.07 3.4 38.2 53 -5.4 22.4 0
18:20 1020 30.12 849 25.07 3.5 38.2 50 -6.1 21.1 0
18:21 1020 30.12 849 25.07 3.5 38.3 54 -4.9 23.2 0
18:22 1020 30.12 849 25.07 3.4 38 54 -5.2 22.7 0
18:23 1020 30.12 849 25.07 3.3 38 54 -5 22.9 0
18:24 1020 30.12 849 25.07 3.3 37.9 54 -5 22.9 0
18:25 1020 30.12 849 25.07 3.2 37.8 56 -4.8 23.4 0
18:26 1020 30.12 849 25.07 3.1 37.6 57 -4.5 23.9 0
18:27 1020 30.12 849 25.07 3 37.4 58 -4.5 23.9 0
18:28 1020 30.12 849 25.07 2.9 37.2 58 -4.6 23.7 0
18:29 1020 30.12 849 25.07 2.9 37.2 57 -4.8 23.4 0
18:30 1020 30.12 849 25.07 2.9 37.2 58 -4.5 23.8 0
18:31 1020 30.12 849 25.07 2.9 37.1 56 -5 23.1 0
18:32 1020 30.12 849 25.07 2.9 37.2 58 -4.6 23.7 0
18:33 1020 30.12 849 25.07 2.8 37.1 59 -4.4 24.2 0
18:34 1020 30.12 849 25.07 2.7 36.8 60 -4.3 24.3 0
18:35 1020 30.12 849 25.07 2.6 36.8 61 -4.2 24.4 0
18:36 1020 30.12 849 25.07 2.6 36.6 59 -4.7 23.5 0
18:37 1020 30.12 849 25.07 2.6 36.6 61 -4.3 24.3 0
18:38 1020 30.12 849 25.07 2.5 36.5 61 -4.2 24.4 0
18:39 1020 30.12 849 25.07 2.5 36.5 61 -4.3 24.3 0
18:40 1020 30.12 849 25.07 2.4 36.3 62 -4.2 24.5 0
18:41 1020 30.12 849 25.07 2.3 36.2 62 -4.3 24.3 0
18:42 1020 30.12 849 25.07 2.3 36.1 61 -4.4 24.2 0
18:43 1020 30.12 849 25.07 2.3 36.1 62 -4.2 24.4 0
18:44 1020 30.12 849 25.07 2.3 36.1 62 -4.2 24.4 0
18:45 1020 30.12 849 25.07 2.2 35.9 63 -4.1 24.6 0
18:46 1020 30.12 849 25.07 2.1 35.8 62 -4.3 24.2 0
18:47 1020 30.12 849 25.07 2.1 35.8 62 -4.3 24.2 0
18:48 1020 30.12 849 25.07 2.2 35.9 63 -4.1 24.6 0
18:49 1020 30.12 849 25.07 2 35.7 63 -4.2 24.4 0
18:50 1020 30.12 849 25.07 2 35.7 65 -3.8 25.1 0
18:51 1020 30.12 849 25.07 2 35.5 65 -4 24.8 0
18:52 1020 30.12 849 25.07 2 35.5 62 -4.5 23.9 0
18:53 1020 30.12 849 25.07 2.1 35.7 60 -4.9 23.2 0
18:54 1020 30.12 849 25.07 2.3 36.2 59 -4.8 23.3 0
18:55 1020 30.12 849 25.07 2.6 36.6 54 -5.9 21.3 0
18:56 1020 30.12 849 25.07 2.9 37.2 53 -5.7 21.8 0
18:57 1020 30.12 849 25.07 3.1 37.6 54 -5.3 22.4 0
18:58 1020 30.12 849 25.07 3.3 37.9 50 -6.1 21 0
18:59 1020 30.12 849 25.07 3.3 38 53 -5.4 22.3 0
19:00 1020 30.12 849 25.07 3.3 38 54 -5.1 22.8 0
19:01 1020 30.12 849 25.07 3.2 37.7 57 -4.4 24 0
19:02 1020 30.12 849 25.07 2.9 37.3 57 -4.9 23.3 0
19:03 1020 30.12 849 25.07 2.8 37.1 56 -5.2 22.7 0
19:04 1020 30.12 849 25.07 2.9 37.2 57 -4.7 23.5 0
19:05 1020 30.12 849 25.07 2.9 37.2 49 -6.7 20 0
19:06 1020 30.12 849 25.07 3.3 38 48 -6.6 20.2 0
19:07 1020 30.12 849 25.07 3.7 38.6 49 -6 21.3 0
19:08 1020 30.12 849 25.07 3.8 38.8 51 -5.4 22.3 0
19:09 1020 30.12 849 25.07 3.6 38.5 57 -4.1 24.6 0
19:10 1020 30.12 849 25.07 3.2 37.8 59 -4.1 24.7 0
19:11 1020 30.12 849 25.07 3 37.4 58 -4.6 23.8 0
19:12 1020 30.12 849 25.07 2.9 37.1 58 -4.6 23.7 0
19:13 1020 30.12 849 25.07 2.8 37 59 -4.5 24 0
19:14 1020 30.12 849 25.07 2.7 36.9 59 -4.6 23.8 0
19:15 1020 30.12 849 25.07 2.7 36.8 59 -4.5 23.9 0
19:16 1020 30.12 849 25.07 2.6 36.6 59 -4.6 23.6 0
19:17 1020 30.12 849 25.07 2.6 36.6 62 -3.9 24.9 0
19:18 1020 30.12 849 25.07 2.4 36.3 61 -4.3 24.3 0
19:19 1020 30.12 849 25.07 2.3 36.2 61 -4.3 24.2 0
19:20 1020 30.12 849 25.07 2.3 36.1 61 -4.4 24.1 0
19:21 1020 30.12 849 25.07 2.3 36.1 61 -4.6 23.8 0
19:22 1020 30.12 849 25.07 2.4 36.3 61 -4.3 24.3 0
19:23 1020 30.12 849 25.07 2.4 36.4 61 -4.3 24.3 0
19:24 1020 30.12 849 25.07 2.4 36.3 61 -4.4 24.1 0
19:25 1020 30.12 849 25.07 2.4 36.3 61 -4.3 24.3 0
19:26 1020 30.12 849 25.07 2.3 36.2 63 -4 24.8 0
19:27 1020 30.12 849 25.07 2.3 36.1 64 -3.8 25.2 0
19:28 1020 30.12 849 25.07 2.1 35.9 65 -3.7 25.3 0
19:29 1020 30.12 849 25.07 2 35.6 64 -4 24.8 0
19:30 1020 30.12 849 25.07 2 35.6 65 -3.9 25 0
19:31 1020 30.12 849 25.07 1.9 35.5 66 -3.6 25.4 0
19:32 1020 30.12 849 25.07 1.8 35.2 68 -3.6 25.5 0
19:33 1020 30.12 849 25.07 1.7 35.1 67 -3.8 25.1 0
19:34 1020 30.12 849 25.07 1.7 35.1 66 -3.9 25 0
19:35 1020 30.12 849 25.07 1.7 35.1 66 -3.9 25 0
19:36 1020 30.12 849 25.07 1.7 35 67 -3.8 25.1 0
19:37 1020 30.12 849 25.07 1.7 35 65 -4.1 24.6 0
19:38 1020 30.12 849 25.07 1.7 35.1 65 -4.2 24.5 0
19:39 1020 30.12 849 25.07 1.8 35.3 63 -4.5 23.9 0
19:40 1020 30.12 849 25.07 2 35.5 62 -4.5 23.9 0
19:41 1020 30.12 849 25.07 2 35.5 63 -4.4 24 0
19:42 1020 30.12 849 25.07 2 35.6 63 -4.4 24.1 0
19:43 1020 30.12 849 25.07 2.1 35.7 62 -4.5 24 0
19:44 1020 30.12 849 25.07 2.1 35.8 62 -4.4 24 0
19:45 1020 30.12 849 25.07 2.1 35.8 62 -4.5 24 0
19:46 1020 30.12 849 25.07 2 35.6 63 -4.2 24.4 0
19:47 1020 30.12 849 25.07 1.9 35.4 66 -3.9 25 0
19:48 1020 30.12 849 25.07 1.7 35 66 -4 24.8 0
19:49 1020 30.12 849 25.07 1.6 34.8 64 -4.5 23.9 0
19:50 1020 30.12 849 25.07 1.6 34.9 64 -4.4 24.1 0
19:51 1020 30.12 849 25.07 1.7 35 66 -4.1 24.7 0
19:52 1020 30.12 849 25.07 1.6 34.8 66 -4.2 24.5 0
19:53 1020 30.12 849 25.07 1.5 34.7 66 -4.1 24.6 0
19:54 1020 30.12 849 25.07 1.4 34.5 67 -4.1 24.7 0
19:55 1020 30.12 849 25.07 1.3 34.4 66 -4.3 24.2 0
19:56 1020 30.12 849 25.07 1.3 34.4 66 -4.3 24.3 0
19:57 1020 30.12 849 25.07 1.4 34.4 66 -4.3 24.3 0
19:58 1020 30.12 849 25.07 1.4 34.4 67 -4.2 24.4 0
19:59 1020 30.12 849 25.07 1.3 34.3 67 -4.1 24.6 0
20:00 1020 30.12 849 25.07 1.2 34.2 67 -4.2 24.4 0
20:01 1020 30.12 849 25.07 1.2 34.1 67 -4.2 24.4 0
20:02 1020 30.12 849 25.07 1.1 34 68 -4.2 24.4 0
20:03 1020 30.12 849 25.07 1.1 33.9 68 -4.1 24.6 0
20:04 1020 30.12 849 25.07 1 33.8 68 -4.2 24.4 0
20:05 1020 30.12 849 25.07 1 33.8 68 -4.2 24.4 0
20:06 1020 30.12 849 25.07 1 33.8 68 -4.2 24.5 0
20:07 1020 30.12 849 25.07 1 33.8 68 -4.2 24.5 0
20:08 1020 30.12 849 25.07 1 33.8 68 -4.2 24.4 0
20:09 1020 30.12 849 25.07 1 33.8 68 -4.2 24.4 0
20:10 1020 30.12 849 25.07 1 33.8 68 -4.2 24.4 0
20:11 1020 30.12 849 25.07 1 33.8 68 -4.3 24.3 0
20:12 1020 30.12 849 25.07 1 33.9 68 -4.2 24.4 0
20:13 1020 30.12 849 25.07 1 33.8 68 -4.2 24.4 0
20:14 1020 30.12 849 25.07 1 33.8 69 -4.1 24.6 0
20:15 1020 30.12 849 25.07 0.9 33.7 69 -4.1 24.6 0
20:16 1020 30.12 849 25.07 0.9 33.6 69 -4.1 24.6 0
20:17 1020 30.12 849 25.07 0.9 33.7 70 -3.9 24.9 0
20:18 1020 30.12 849 25.07 0.8 33.5 70 -4 24.8 0
20:19 1020 30.12 849 25.07 0.8 33.4 71 -3.9 24.9 0
20:20 1020 30.12 849 25.07 0.7 33.2 71 -4 24.9 0
20:21 1020 30.12 849 25.07 0.6 33.1 71 -4 24.8 0
20:22 1020 30.12 849 25.07 0.6 33 71 -4 24.7 0
20:23 1020 30.12 849 25.07 0.5 33 72 -4 24.8 0
20:24 1020 30.12 849 25.07 0.5 32.9 71 -4.1 24.6 0
20:25 1020 30.12 849 25.07 0.5 32.9 71 -4.1 24.6 0
20:26 1020 30.12 849 25.07 0.6 33.1 71 -4.2 24.5 0
20:27 1020 30.12 849 25.07 0.6 33.1 70 -4.2 24.5 0
20:28 1020 30.12 849 25.07 0.6 33.2 70 -4.3 24.3 0
20:29 1020 30.12 849 25.07 0.7 33.2 70 -4.2 24.4 0
20:30 1020 30.12 849 25.07 0.8 33.4 68 -4.4 24.1 0
20:31 1020 30.12 849 25.07 0.9 33.6 67 -4.6 23.8 0
20:32 1020 30.12 849 25.07 0.9 33.7 68 -4.4 24.2 0
20:33 1020 30.12 849 25.07 0.9 33.7 67 -4.5 24 0
20:34 1020 30.12 849 25.07 0.9 33.7 66 -4.6 23.7 0
20:35 1020 30.12 849 25.07 1 33.8 67 -4.5 24 0
20:36 1020 30.12 849 25.07 1 33.9 66 -4.6 23.8 0
20:37 1020 30.12 849 25.07 1 33.9 66 -4.7 23.6 0
20:38 1020 30.12 849 25.07 1.1 34 64 -4.9 23.2 0
20:39 1020 30.12 849 25.07 1.2 34.2 65 -4.7 23.5 0
20:40 1020 30.12 849 25.07 1.2 34.1 65 -4.6 23.6 0
20:41 1020 30.12 849 25.07 1.2 34.1 66 -4.5 24 0
20:42 1020 30.12 849 25.07 1.1 33.9 66 -4.5 23.8 0
20:43 1020 30.12 849 25.07 1 33.8 67 -4.4 24.1 0
20:44 1020 30.12 849 25.07 0.9 33.6 68 -4.4 24.1 0
20:45 1020 30.12 849 25.07 0.8 33.5 68 -4.4 24 0
20:46 1020 30.12 849 25.07 0.8 33.4 67 -4.6 23.7 0
20:47 1020 30.12 849 25.07 0.8 33.4 67 -4.7 23.6 0
20:48 1020 30.12 849 25.07 0.8 33.5 65 -4.9 23.1 0
20:49 1020 30.12 849 25.07 0.9 33.6 65 -5 23 0
20:50 1020 30.12 849 25.07 1 33.8 65 -4.9 23.1 0
20:51 1020 30.12 849 25.07 1.1 33.9 65 -4.9 23.2 0
20:52 1020 30.12 849 25.07 1.1 33.9 64 -4.9 23.2 0
20:53 1020 30.12 849 25.07 1 33.9 65 -4.9 23.2 0
20:54 1020 30.12 849 25.07 1 33.9 65 -4.9 23.2 0
20:55 1020 30.12 849 25.07 1 33.9 65 -4.9 23.2 0
20:56 1020 30.12 849 25.07 1.1 33.9 65 -4.8 23.3 0
20:57 1020 30.12 849 25.07 1.1 33.9 65 -4.8 23.4 0
20:58 1020 30.12 849 25.07 1 33.8 65 -4.8 23.4 0
20:59 1020 30.12 849 25.07 1 33.7 65 -4.8 23.4 0
21:00 1020 30.12 849 25.07 0.9 33.6 66 -4.8 23.3 0
21:01 1020 30.12 849 25.07 0.9 33.6 66 -4.7 23.5 0
21:02 1020 30.12 849 25.07 0.8 33.5 67 -4.7 23.5 0
21:03 1020 30.12 849 25.07 0.8 33.4 67 -4.7 23.5 0
21:04 1020 30.12 849 25.07 0.7 33.3 67 -4.6 23.7 0
21:05 1020 30.12 849 25.07 0.7 33.2 67 -4.8 23.3 0
21:06 1020 30.12 849 25.07 0.7 33.3 66 -5 22.9 0
21:07 1020 30.12 849 25.07 0.8 33.4 67 -4.7 23.5 0
21:08 1020 30.12 849 25.07 0.7 33.3 67 -4.7 23.6 0
21:09 1020 30.12 849 25.07 0.6 33.2 67 -4.7 23.5 0
21:10 1020 30.12 849 25.07 0.6 33.1 67 -4.8 23.4 0
21:11 1020 30.12 849 25.07 0.6 33 67 -4.9 23.2 0
21:12 1020 30.12 849 25.07 0.6 33.1 66 -5.1 22.9 0
21:13 1020 30.12 849 25.07 0.7 33.2 66 -5.1 22.9 0
21:14 1020 30.12 849 25.07 0.7 33.3 65 -5.1 22.9 0
21:15 1020 30.12 849 25.07 0.7 33.2 65 -5.1 22.8 0
21:16 1020 30.12 849 25.07 0.7 33.3 65 -5.1 22.9 0
21:17 1020 30.12 849 25.07 0.7 33.2 66 -5 23 0
21:18 1020 30.12 849 25.07 0.6 33.1 66 -5 23 0
21:19 1020 30.12 849 25.07 0.6 33 66 -5 23 0
21:20 1020 30.12 849 25.07 0.5 32.9 68 -4.8 23.4 0
21:21 1020 30.12 849 25.07 0.4 32.7 68 -4.8 23.4 0
21:22 1020 30.12 849 25.07 0.3 32.5 69 -4.8 23.4 0
21:23 1020 30.12 849 25.07 0.2 32.4 69 -4.8 23.4 0
21:24 1020 30.12 849 25.07 0.2 32.3 69 -4.8 23.4 0
21:25 1020 30.12 849 25.07 0.1 32.2 70 -4.8 23.4 0
21:26 1020 30.12 849 25.07 0.1 32.1 70 -4.8 23.4 0
21:27 1020 30.12 849 25.07 0 32 70 -4.8 23.4 0
21:28 1020 30.12 849 25.07 -0 32 70 -4.8 23.3 0
21:29 1020 30.12 849 25.07 -0 31.9 70 -4.8 23.3 0
21:30 1020 30.12 849 25.07 -0 31.9 70 -4.9 23.3 0
21:31 1020 30.12 849 25.07 -0.1 31.8 70 -5 23 0
21:32 1020 30.12 849 25.07 -0.1 31.9 69 -5 23 0
21:33 1020 30.12 849 25.07 -0.2 31.7 70 -5.1 22.9 0
21:34 1020 30.12 849 25.07 -0.2 31.7 70 -5.1 22.9 0
21:35 1020 30.12 849 25.07 -0.2 31.6 70 -5 22.9 0
21:36 1020 30.12 849 25.07 -0.3 31.5 70 -5 23 0
21:37 1020 30.12 849 25.07 -0.4 31.3 71 -5 23 0
21:38 1020 30.12 849 25.07 -0.5 31.1 71 -5.1 22.9 0
21:39 1020 30.12 849 25.07 -0.6 30.9 71 -5.1 22.8 0
21:40 1020 30.12 849 25.07 -0.7 30.7 72 -5.2 22.6 0
21:41 1020 30.12 849 25.07 -0.8 30.6 71 -5.3 22.5 0
21:42 1020 30.12 849 25.07 -0.7 30.7 71 -5.3 22.4 0
21:43 1020 30.12 849 25.07 -0.8 30.6 71 -5.4 22.4 0
21:44 1020 30.12 849 25.07 -0.9 30.4 71 -5.5 22.2 0
21:45 1020 30.12 849 25.07 -0.9 30.3 71 -5.5 22.1 0
21:46 1020 30.12 849 25.07 -1 30.2 71 -5.5 22 0
21:47 1020 30.12 849 25.07 -1 30.1 71 -5.6 21.8 0
21:48 1020 30.12 849 25.07 -1 30.1 71 -5.7 21.8 0
21:49 1020 30.12 849 25.07 -1 30.2 70 -5.8 21.6 0
21:50 1020 30.12 849 25.07 -1 30.1 70 -5.8 21.5 0
21:51 1020 30.12 849 25.07 -1 30.2 70 -5.9 21.4 0
21:52 1020 30.12 849 25.07 -1 30.2 69 -5.9 21.3 0
21:53 1020 30.12 849 25.07 -1 30.2 69 -6 21.2 0
21:54 1020 30.12 849 25.07 -1 30.3 69 -6 21.3 0
21:55 1020 30.12 849 25.07 -1 30.2 69 -6 21.2 0
21:56 1020 30.12 849 25.07 -1 30.2 69 -6.1 21 0
21:57 1020 30.12 849 25.07 -1 30.2 68 -6.1 21 0
21:58 1020 30.12 849 25.07 -1 30.1 69 -6.1 21 0
21:59 1020 30.12 849 25.07 -1.1 30.1 69 -6.1 21 0
22:00 1020 30.12 849 25.07 -1.1 30 69 -6.1 21 0
22:01 1020 30.12 849 25.07 -1.2 29.9 69 -6.2 20.9 0
22:02 1020 30.12 849 25.07 -1.2 29.9 69 -6.2 20.8 0
22:03 1020 30.12 849 25.07 -1.1 30 68 -6.2 20.8 0
22:04 1020 30.12 849 25.07 -1.2 29.9 68 -6.3 20.7 0
22:05 1020 30.12 849 25.07 -1.2 29.9 68 -6.3 20.6 0
22:06 1020 30.12 849 25.07 -1.1 29.9 68 -6.3 20.7 0
22:07 1020 30.12 849 25.07 -1.2 29.9 68 -6.3 20.7 0
22:08 1020 30.12 849 25.07 -1.2 29.8 68 -6.4 20.6 0
22:09 1020 30.12 849 25.07 -1.2 29.8 68 -6.4 20.5 0
22:10 1020 30.12 849 25.07 -1.2 29.8 68 -6.4 20.5 0
22:11 1020 30.12 849 25.07 -1.3 29.7 68 -6.5 20.4 0
22:12 1020 30.12 849 25.07 -1.3 29.7 68 -6.4 20.4 0
22:13 1020 30.12 849 25.07 -1.4 29.5 68 -6.5 20.3 0
22:14 1020 30.12 849 25.07 -1.4 29.6 68 -6.6 20.2 0
22:15 1020 30.12 849 25.07 -1.4 29.5 68 -6.5 20.2 0
22:16 1020 30.12 849 25.07 -1.4 29.5 68 -6.6 20.1 0
22:17 1020 30.12 849 25.07 -1.4 29.6 67 -6.7 20 0
22:18 1020 30.12 849 25.07 -1.3 29.6 67 -6.7 20 0
22:19 1020 30.12 849 25.07 -1.3 29.6 67 -6.8 19.8 0
22:20 1020 30.12 849 25.07 -1.2 29.8 66 -6.8 19.8 0
22:21 1020 30.12 849 25.07 -1.4 29.6 66 -6.9 19.6 0
22:22 1020 30.12 849 25.07 -1.5 29.3 67 -6.9 19.5 0
22:23 1020 30.12 849 25.07 -1.7 29 68 -6.9 19.6 0
22:24 1020 30.12 849 25.07 -1.8 28.7 68 -6.9 19.5 0
22:25 1020 30.12 849 25.07 -1.8 28.8 68 -7 19.5 0
22:26 1020 30.12 849 25.07 -1.6 29 67 -7 19.5 0
22:27 1020 30.12 849 25.07 -1.6 29.2 67 -7 19.5 0
22:28 1020 30.12 849 25.07 -1.5 29.4 66 -7 19.3 0
22:29 1020 30.12 849 25.07 -1.4 29.4 66 -7 19.3 0
22:30 1020 30.12 849 25.07 -1.4 29.5 66 -7 19.3 0
22:31 1020 30.12 849 25.07 -1.4 29.5 65 -7.1 19.2 0
22:32 1020 30.12 849 25.07 -1.4 29.4 66 -7 19.3 0
22:33 1020 30.12 849 25.07 -1.5 29.4 66 -7.1 19.3 0
22:34 1020 30.12 849 25.07 -1.5 29.3 65 -7.2 19.1 0
22:35 1020 30.12 849 25.07 -1.7 29 67 -7.1 19.3 0
22:36 1020 30.12 849 25.07 -1.8 28.7 67 -7.2 19.1 0
22:37 1020 30.12 849 25.07 -2 28.4 66 -7.5 18.5 0
22:38 1020 30.12 849 25.07 -2.5 27.6 69 -7.4 18.6 0
22:39 1020 30.12 849 25.07 -2.9 26.8 71 -7.5 18.6 0
22:40 1020 30.12 849 25.07 -3.2 26.2 72 -7.6 18.3 0
22:41 1020 30.12 849 25.07 -3.5 25.7 72 -7.8 18 0
22:42 1020 30.12 849 25.07 -3.8 25.2 73 -7.9 17.8 0
22:43 1020 30.12 849 25.07 -4 24.7 75 -7.9 17.8 0
22:44 1020 30.12 849 25.07 -4.2 24.4 76 -7.9 17.8 0
22:45 1020 30.12 849 25.07 -4.2 24.4 76 -7.8 17.9 0
22:46 1020 30.12 849 25.07 -4.1 24.6 76 -7.7 18.1 0
22:47 1020 30.12 849 25.07 -4 24.8 76 -7.6 18.4 0
22:48 1020 30.12 849 25.07 -3.7 25.3 76 -7.4 18.7 0
22:49 1020 30.12 850 25.1 -3.4 25.9 74 -7.3 18.9 0
22:50 1020 30.12 850 25.1 -3.2 26.3 74 -7.3 18.9 0
22:51 1020 30.12 850 25.1 -3 26.6 73 -7.3 18.9 0
22:52 1020 30.12 850 25.1 -3 26.7 72 -7.3 18.8 0
22:53 1020 30.12 850 25.1 -2.9 26.7 72 -7.3 18.8 0
22:54 1020 30.12 850 25.1 -2.9 26.8 72 -7.3 18.8 0
22:55 1020 30.12 849 25.07 -2.9 26.7 72 -7.4 18.7 0
22:56 1020 30.12 849 25.07 -2.9 26.7 71 -7.5 18.6 0
22:57 1020 30.12 849 25.07 -3.1 26.4 71 -7.6 18.3 0
22:58 1020 30.12 849 25.07 -3.4 25.9 73 -7.6 18.4 0
22:59 1020 30.12 849 25.07 -3.5 25.8 73 -7.5 18.4 0
23:00 1020 30.12 849 25.07 -3.5 25.7 73 -7.6 18.4 0
23:01 1020 30.12 849 25.07 -3.5 25.7 73 -7.6 18.3 0
23:02 1020 30.12 849 25.07 -3.5 25.7 73 -7.6 18.3 0
23:03 1020 30.12 849 25.07 -3.5 25.6 74 -7.6 18.3 0
23:04 1020 30.12 849 25.07 -3.6 25.6 74 -7.5 18.5 0
23:05 1020 30.12 849 25.07 -3.6 25.6 74 -7.5 18.5 0
23:06 1020 30.12 849 25.07 -3.4 25.8 74 -7.4 18.6 0
23:07 1020 30.12 850 25.1 -3.3 26 73 -7.5 18.5 0
23:08 1020 30.12 849 25.07 -3.2 26.2 73 -7.4 18.7 0
23:09 1020 30.12 849 25.07 -3.2 26.3 73 -7.4 18.6 0
23:10 1020 30.12 849 25.07 -3.1 26.4 72 -7.4 18.7 0
23:11 1020 30.12 849 25.07 -3 26.7 72 -7.3 18.8 0
23:12 1020 30.12 849 25.07 -2.9 26.9 71 -7.5 18.6 0
23:13 1020 30.12 849 25.07 -2.8 26.9 70 -7.6 18.4 0
23:14 1020 30.12 849 25.07 -2.8 27 70 -7.5 18.5 0
23:15 1020 30.12 849 25.07 -2.7 27.1 70 -7.5 18.5 0
23:16 1020 30.12 849 25.07 -2.6 27.4 69 -7.5 18.6 0
23:17 1020 30.12 849 25.07 -2.6 27.4 69 -7.5 18.5 0
23:18 1020 30.12 849 25.07 -2.5 27.4 69 -7.5 18.5 0
23:19 1020 30.12 849 25.07 -2.5 27.5 69 -7.5 18.5 0
23:20 1020 30.12 849 25.07 -2.4 27.7 68 -7.5 18.5 0
23:21 1020 30.12 849 25.07 -2.2 28 67 -7.5 18.4 0
23:22 1020 30.12 849 25.07 -2.2 28.1 67 -7.6 18.3 0
23:23 1020 30.12 849 25.07 -2.2 28.1 66 -7.7 18.2 0
23:24 1020 30.12 849 25.07 -2.2 28.1 66 -7.7 18.2 0
23:25 1020 30.12 849 25.07 -2.2 28 66 -7.7 18.2 0
23:26 1020 30.12 849 25.07 -2.2 28 67 -7.5 18.4 0
23:27 1020 30.12 849 25.07 -2.2 28.1 67 -7.6 18.4 0
23:28 1020 30.12 849 25.07 -2 28.3 65 -7.7 18.1 0
23:29 1020 30.12 849 25.07 -1.9 28.5 65 -7.6 18.3 0
23:30 1020 30.12 849 25.07 -1.9 28.6 66 -7.5 18.6 0
23:31 1020 30.12 849 25.07 -1.9 28.5 65 -7.6 18.3 0
23:32 1020 30.12 849 25.07 -2.1 28.3 65 -7.7 18.1 0
23:33 1020 30.12 849 25.07 -2.2 28.1 66 -7.7 18.2 0
23:34 1020 30.12 849 25.07 -2.3 27.8 67 -7.7 18.1 0
23:35 1020 30.12 849 25.07 -2.4 27.6 67 -7.7 18.1 0
23:36 1020 30.12 849 25.07 -2.5 27.4 67 -7.8 18 0
23:37 1020 30.12 849 25.07 -2.6 27.4 68 -7.7 18.2 0
23:38 1020 30.12 849 25.07 -2.5 27.5 67 -7.8 18 0
23:39 1020 30.12 849 25.07 -2.5 27.5 67 -7.7 18.1 0
23:40 1020 30.12 849 25.07 -2.4 27.7 67 -7.8 18 0
23:41 1020 30.12 849 25.07 -2.3 27.8 67 -7.7 18.2 0
23:42 1020 30.12 849 25.07 -2.3 27.8 66 -7.9 17.9 0
23:43 1020 30.12 849 25.07 -2.5 27.5 66 -7.9 17.7 0
23:44 1020 30.12 849 25.07 -2.6 27.4 67 -7.8 18 0
23:45 1020 30.12 849 25.07 -2.6 27.3 67 -8 17.6 0
23:46 1020 30.12 849 25.07 -2.7 27.2 67 -8 17.7 0
23:47 1020 30.12 849 25.07 -2.8 26.9 68 -8 17.7 0
23:48 1020 30.12 849 25.07 -3.1 26.5 67 -8.3 17 0
23:49 1020 30.12 849 25.07 -3.4 25.9 70 -8.1 17.3 0
23:50 1020 30.12 849 25.07 -3.5 25.7 69 -8.4 16.9 0
23:51 1020 30.12 849 25.07 -3.7 25.4 70 -8.4 16.8 0
23:52 1020 30.12 849 25.07 -3.8 25.2 71 -8.4 16.9 0
23:53 1020 30.12 849 25.07 -3.9 25 70 -8.7 16.4 0
23:54 1020 30.12 849 25.07 -4.2 24.5 71 -8.6 16.5 0
23:55 1020 30.12 849 25.07 -4.1 24.6 74 -8 17.5 0
23:56 1020 30.12 849 25.07 -3.6 25.5 72 -8 17.7 0
23:57 1020 30.12 849 25.07 -3.3 26 68 -8.4 16.8 0
23:58 1020 30.12 849 25.07 -3.5 25.7 70 -8.2 17.2 0
23:59 1020 30.12 849 25.07 -3.6 25.5 71 -8.1 17.3 0
24:00 1020 30.12 849 25.07 -3.5 25.8 66 -9 15.9 0